Observation data for Van Horn on 01/19/2019      Previous  Date  Next       Current Mesonet Observations  Soil Data  Daily Summary Page  Observations in Plain Language
KVA1 190600Z 33017G24KT 10/M07 A3016 RMK A01 T01021068  RH  030%=      5-min Rain = 0
KVA1 190601Z 32022G28KT 10/M07 A3016 RMK A01 T01031067  RH  030%=      5-min Rain = 0
KVA1 190602Z 33019G25KT 10/M07 A3016 RMK A01 T01031068  RH  029%=      5-min Rain = 0
KVA1 190603Z 33019G24KT 10/M07 A3016 RMK A01 T01031069  RH  029%=      5-min Rain = 0
KVA1 190604Z 33021G26KT 10/M07 A3016 RMK A01 T01031069  RH  029%=      5-min Rain = 0
KVA1 190605Z 33020G26KT 10/M07 A3016 RMK A01 T01031070  RH  029%=      5-min Rain = 0
KVA1 190606Z 33017KT 10/M07 A3017 RMK A01 T01031070  RH  029%=      5-min Rain = 0
KVA1 190607Z 34016KT 10/M07 A3017 RMK A01 T01031069  RH  029%=      5-min Rain = 0
KVA1 190608Z 34018G26KT 10/M07 A3017 RMK A01 T01021069  RH  029%=      5-min Rain = 0
KVA1 190609Z 34020G26KT 10/M07 A3017 RMK A01 T01011069  RH  029%=      5-min Rain = 0
KVA1 190610Z 35022G29KT 10/M07 A3017 RMK A01 T01011070  RH  029%=      5-min Rain = 0
KVA1 190611Z 34021G26KT 10/M07 A3017 RMK A01 T01011071  RH  029%=      5-min Rain = 0
KVA1 190612Z 34021KT 10/M07 A3017 RMK A01 T01011071  RH  029%=      5-min Rain = 0
KVA1 190613Z 34022KT 10/M07 A3017 RMK A01 T01011071  RH  029%=      5-min Rain = 0
KVA1 190614Z 34019G25KT 10/M07 A3017 RMK A01 T01011071  RH  029%=      5-min Rain = 0
KVA1 190615Z 33014G21KT 10/M07 A3017 RMK A01 T01001072  RH  029%=      5-min Rain = 0
KVA1 190616Z 33018KT 10/M07 A3017 RMK A01 T00991072  RH  029%=      5-min Rain = 0
KVA1 190617Z 33019G25KT 10/M07 A3017 RMK A01 T00981072  RH  029%=      5-min Rain = 0
KVA1 190618Z 33016G21KT 10/M07 A3017 RMK A01 T00981073  RH  029%=      5-min Rain = 0
KVA1 190619Z 34019G25KT 10/M07 A3017 RMK A01 T00981072  RH  029%=      5-min Rain = 0
KVA1 190620Z 33016G24KT 10/M07 A3018 RMK A01 T00981072  RH  029%=      5-min Rain = 0
KVA1 190621Z 34021G30KT 10/M07 A3018 RMK A01 T00981073  RH  029%=      5-min Rain = 0
KVA1 190622Z 33018KT 10/M07 A3018 RMK A01 T00981073  RH  029%=      5-min Rain = 0
KVA1 190623Z 33017G26KT 10/M07 A3018 RMK A01 T00981074  RH  029%=      5-min Rain = 0
KVA1 190624Z 33019G25KT 10/M08 A3018 RMK A01 T00981075  RH  029%=      5-min Rain = 0
KVA1 190625Z 33015KT 10/M08 A3018 RMK A01 T00981076  RH  029%=      5-min Rain = 0
KVA1 190626Z 33015G20KT 10/M08 A3018 RMK A01 T00971077  RH  029%=      5-min Rain = 0
KVA1 190627Z 33015G21KT 10/M08 A3018 RMK A01 T00971077  RH  029%=      5-min Rain = 0
KVA1 190628Z 33019KT 10/M08 A3018 RMK A01 T00961078  RH  029%=      5-min Rain = 0
KVA1 190629Z 33017G24KT 10/M08 A3018 RMK A01 T00961080  RH  028%=      5-min Rain = 0
KVA1 190630Z 33016G23KT 10/M08 A3018 RMK A01 T00961080  RH  028%=      5-min Rain = 0
KVA1 190631Z 33018G24KT 10/M08 A3018 RMK A01 T00951081  RH  028%=      5-min Rain = 0
KVA1 190632Z 34017G22KT 10/M08 A3018 RMK A01 T00961083  RH  027%=      5-min Rain = 0
KVA1 190633Z 33015KT 10/M08 A3018 RMK A01 T00961083  RH  027%=      5-min Rain = 0
KVA1 190634Z 33016KT 10/M08 A3018 RMK A01 T00961084  RH  027%=      5-min Rain = 0
KVA1 190635Z 33015G24KT 10/M08 A3018 RMK A01 T00961084  RH  027%=      5-min Rain = 0
KVA1 190636Z 34019G24KT 10/M09 A3018 RMK A01 T00951085  RH  027%=      5-min Rain = 0
KVA1 190637Z 33018G23KT 10/M09 A3018 RMK A01 T00951087  RH  027%=      5-min Rain = 0
KVA1 190638Z 32021G26KT 10/M09 A3018 RMK A01 T00961089  RH  026%=      5-min Rain = 0
KVA1 190639Z 34017G24KT 10/M09 A3018 RMK A01 T00971090  RH  026%=      5-min Rain = 0
KVA1 190640Z 34019G24KT 10/M09 A3018 RMK A01 T00971090  RH  026%=      5-min Rain = 0
KVA1 190641Z 34018KT 10/M09 A3018 RMK A01 T00971090  RH  026%=      5-min Rain = 0
KVA1 190642Z 34016KT 10/M09 A3018 RMK A01 T00971092  RH  026%=      5-min Rain = 0
KVA1 190643Z 34016G23KT 10/M09 A3018 RMK A01 T00961093  RH  025%=      5-min Rain = 0
KVA1 190644Z 33018G24KT 10/M09 A3018 RMK A01 T00961092  RH  025%=      5-min Rain = 0
KVA1 190645Z 34015KT 10/M09 A3018 RMK A01 T00961092  RH  025%=      5-min Rain = 0
KVA1 190646Z 34018KT 10/M09 A3018 RMK A01 T00961093  RH  025%=      5-min Rain = 0
KVA1 190647Z 33017KT 10/M09 A3018 RMK A01 T00961092  RH  026%=      5-min Rain = 0
KVA1 190648Z 34018KT 10/M09 A3018 RMK A01 T00961092  RH  026%=      5-min Rain = 0
KVA1 190649Z 34016G21KT 10/M09 A3018 RMK A01 T00961093  RH  025%=      5-min Rain = 0
KVA1 190650Z 34018KT 10/M09 A3018 RMK A01 T00961094  RH  025%=      5-min Rain = 0
KVA1 190651Z 34020G28KT 10/M10 A3018 RMK A01 T00961095  RH  025%=      5-min Rain = 0
KVA1 190652Z 33019G24KT 10/M10 A3018 RMK A01 T00961096  RH  025%=      5-min Rain = 0
KVA1 190653Z 34017G24KT 10/M10 A3018 RMK A01 T00961096  RH  025%=      5-min Rain = 0
KVA1 190654Z 34014KT 10/M10 A3018 RMK A01 T00951096  RH  025%=      5-min Rain = 0
KVA1 190655Z 33015KT 09/M10 A3018 RMK A01 T00941097  RH  025%=      5-min Rain = 0
KVA1 190656Z 33021G27KT 09/M10 A3018 RMK A01 T00941097  RH  025%=      5-min Rain = 0
KVA1 190657Z 33021G27KT 09/M10 A3018 RMK A01 T00941099  RH  024%=      5-min Rain = 0
KVA1 190658Z 33014KT 10/M10 A3018 RMK A01 T00961099  RH  024%=      5-min Rain = 0
KVA1 190659Z 33017G26KT 10/M10 A3018 RMK A01 T00951099  RH  024%=      5-min Rain = 0
KVA1 190700Z 34018KT 09/M10 A3018 RMK A01 T00941100  RH  024%=      5-min Rain = 0
KVA1 190701Z 33020G27KT 09/M10 A3018 RMK A01 T00941101  RH  024%=      5-min Rain = 0
KVA1 190702Z 32016G23KT 09/M10 A3018 RMK A01 T00941102  RH  024%=      5-min Rain = 0
KVA1 190703Z 33021G29KT 09/M10 A3018 RMK A01 T00941103  RH  024%=      5-min Rain = 0
KVA1 190704Z 33019G27KT 10/M10 A3018 RMK A01 T00951104  RH  023%=      5-min Rain = 0
KVA1 190705Z 32016G22KT 10/M10 A3018 RMK A01 T00951104  RH  023%=      5-min Rain = 0
KVA1 190706Z 33017G23KT 10/M10 A3018 RMK A01 T00951104  RH  023%=      5-min Rain = 0
KVA1 190707Z 33021KT 10/M11 A3018 RMK A01 T00951106  RH  023%=      5-min Rain = 0
KVA1 190708Z 32019G28KT 10/M11 A3018 RMK A01 T00951108  RH  023%=      5-min Rain = 0
KVA1 190709Z 33017G28KT 10/M11 A3018 RMK A01 T00961108  RH  023%=      5-min Rain = 0
KVA1 190710Z 33016G22KT 10/M11 A3019 RMK A01 T00961108  RH  023%=      5-min Rain = 0
KVA1 190711Z 32016G22KT 10/M11 A3019 RMK A01 T00951107  RH  023%=      5-min Rain = 0
KVA1 190712Z 33014KT 09/M11 A3019 RMK A01 T00941106  RH  023%=      5-min Rain = 0
KVA1 190713Z 33015KT 09/M11 A3019 RMK A01 T00941105  RH  023%=      5-min Rain = 0
KVA1 190714Z 34018G23KT 09/M11 A3019 RMK A01 T00931107  RH  023%=      5-min Rain = 0
KVA1 190715Z 34013G20KT 09/M11 A3019 RMK A01 T00941108  RH  023%=      5-min Rain = 0
KVA1 190716Z 32015G23KT 09/M11 A3019 RMK A01 T00941108  RH  023%=      5-min Rain = 0
KVA1 190717Z 33016KT 09/M11 A3019 RMK A01 T00941108  RH  023%=      5-min Rain = 0
KVA1 190718Z 33014G21KT 09/M11 A302 RMK A01 T00941108  RH  023%=      5-min Rain = 0
KVA1 190719Z 33017KT 09/M11 A302 RMK A01 T00931108  RH  023%=      5-min Rain = 0
KVA1 190720Z 33017KT 09/M11 A302 RMK A01 T00941108  RH  023%=      5-min Rain = 0
KVA1 190721Z 33015G21KT 10/M11 A302 RMK A01 T00951108  RH  023%=      5-min Rain = 0
KVA1 190722Z 33016G21KT 10/M11 A302 RMK A01 T00951108  RH  023%=      5-min Rain = 0
KVA1 190723Z 33018G23KT 10/M11 A302 RMK A01 T00951108  RH  023%=      5-min Rain = 0
KVA1 190724Z 34014G19KT 10/M11 A302 RMK A01 T00951108  RH  023%=      5-min Rain = 0
KVA1 190725Z 34012KT 10/M11 A3021 RMK A01 T00951108  RH  023%=      5-min Rain = 0
KVA1 190726Z 33013G18KT 09/M11 A3021 RMK A01 T00941109  RH  023%=      5-min Rain = 0
KVA1 190727Z 33018G23KT 10/M11 A3021 RMK A01 T00951109  RH  023%=      5-min Rain = 0
KVA1 190728Z 34016KT 10/M11 A3021 RMK A01 T00951108  RH  023%=      5-min Rain = 0
KVA1 190729Z 34013KT 10/M11 A3021 RMK A01 T00961108  RH  023%=      5-min Rain = 0
KVA1 190730Z 33013G18KT 10/M11 A3021 RMK A01 T00961108  RH  023%=      5-min Rain = 0
KVA1 190731Z 33015KT 10/M11 A3021 RMK A01 T00951108  RH  023%=      5-min Rain = 0
KVA1 190732Z 33016KT 10/M11 A3021 RMK A01 T00961108  RH  023%=      5-min Rain = 0
KVA1 190733Z 34013KT 10/M11 A3021 RMK A01 T00961107  RH  023%=      5-min Rain = 0
KVA1 190734Z 34010G15KT 10/M11 A3021 RMK A01 T00961106  RH  023%=      5-min Rain = 0
KVA1 190735Z 34014G19KT 09/M11 A3021 RMK A01 T00941107  RH  023%=      5-min Rain = 0
KVA1 190736Z 34014KT 09/M11 A3021 RMK A01 T00941106  RH  023%=      5-min Rain = 0
KVA1 190737Z 33013G18KT 10/M11 A3021 RMK A01 T00951106  RH  023%=      5-min Rain = 0
KVA1 190738Z 32012KT 10/M11 A3021 RMK A01 T00951107  RH  023%=      5-min Rain = 0
KVA1 190739Z 33012KT 10/M11 A3021 RMK A01 T00951106  RH  023%=      5-min Rain = 0
KVA1 190740Z 34013KT 10/M11 A3022 RMK A01 T00951106  RH  023%=      5-min Rain = 0
KVA1 190741Z 34013G18KT 09/M11 A3022 RMK A01 T00941106  RH  023%=      5-min Rain = 0
KVA1 190742Z 34013KT 09/M11 A3022 RMK A01 T00941105  RH  023%=      5-min Rain = 0
KVA1 190743Z 33012KT 09/M10 A3022 RMK A01 T00941104  RH  024%=      5-min Rain = 0
KVA1 190744Z 33011KT 09/M10 A3022 RMK A01 T00941104  RH  024%=      5-min Rain = 0
KVA1 190745Z 32012G19KT 09/M10 A3022 RMK A01 T00931103  RH  024%=      5-min Rain = 0
KVA1 190746Z 34014G20KT 09/M10 A3022 RMK A01 T00931102  RH  024%=      5-min Rain = 0
KVA1 190747Z 34010G20KT 09/M10 A3022 RMK A01 T00931102  RH  024%=      5-min Rain = 0
KVA1 190748Z 33013G22KT 09/M10 A3022 RMK A01 T00931102  RH  024%=      5-min Rain = 0
KVA1 190749Z 33012G18KT 09/M10 A3022 RMK A01 T00931102  RH  024%=      5-min Rain = 0
KVA1 190750Z 34016G21KT 09/M10 A3022 RMK A01 T00921102  RH  024%=      5-min Rain = 0
KVA1 190751Z 34012KT 09/M10 A3022 RMK A01 T00921102  RH  024%=      5-min Rain = 0
KVA1 190752Z 34010KT 09/M10 A3022 RMK A01 T00921101  RH  024%=      5-min Rain = 0
KVA1 190753Z 32009KT 09/M10 A3023 RMK A01 T00911101  RH  025%=      5-min Rain = 0
KVA1 190754Z 34010KT 09/M10 A3023 RMK A01 T00901101  RH  025%=      5-min Rain = 0
KVA1 190755Z 34010KT 09/M10 A3023 RMK A01 T00901100  RH  025%=      5-min Rain = 0
KVA1 190756Z 33013KT 09/M10 A3023 RMK A01 T00901100  RH  025%=      5-min Rain = 0
KVA1 190757Z 34013KT 09/M10 A3023 RMK A01 T00901099  RH  025%=      5-min Rain = 0
KVA1 190758Z 33009KT 09/M10 A3023 RMK A01 T00901099  RH  025%=      5-min Rain = 0
KVA1 190759Z 33008KT 09/M10 A3023 RMK A01 T00901099  RH  025%=      5-min Rain = 0
KVA1 190800Z 34009KT 09/M10 A3023 RMK A01 T00901099  RH  025%=      5-min Rain = 0
KVA1 190801Z 36009KT 09/M10 A3023 RMK A01 T00891099  RH  025%=      5-min Rain = 0
KVA1 190802Z 33009KT 09/M10 A3023 RMK A01 T00891099  RH  025%=      5-min Rain = 0
KVA1 190803Z 33008KT 09/M10 A3023 RMK A01 T00891098  RH  026%=      5-min Rain = 0
KVA1 190804Z 33006KT 09/M10 A3023 RMK A01 T00891098  RH  025%=      5-min Rain = 0
KVA1 190805Z 33008KT 09/M10 A3023 RMK A01 T00881098  RH  026%=      5-min Rain = 0
KVA1 190806Z 35005KT 09/M10 A3023 RMK A01 T00881098  RH  026%=      5-min Rain = 0
KVA1 190807Z 35008KT 09/M10 A3023 RMK A01 T00871098  RH  026%=      5-min Rain = 0
KVA1 190808Z 34008KT 09/M10 A3023 RMK A01 T00871098  RH  026%=      5-min Rain = 0
KVA1 190809Z 36007KT 09/M10 A3023 RMK A01 T00871098  RH  026%=      5-min Rain = 0
KVA1 190810Z 35008KT 09/M10 A3023 RMK A01 T00871097  RH  026%=      5-min Rain = 0
KVA1 190811Z 35008KT 09/M10 A3023 RMK A01 T00871098  RH  026%=      5-min Rain = 0
KVA1 190812Z 36008KT 09/M10 A3023 RMK A01 T00861097  RH  026%=      5-min Rain = 0
KVA1 190813Z 35009KT 09/M10 A3023 RMK A01 T00861097  RH  026%=      5-min Rain = 0
KVA1 190814Z 36006KT 09/M10 A3023 RMK A01 T00861097  RH  026%=      5-min Rain = 0
KVA1 190815Z 01006KT 09/M10 A3023 RMK A01 T00851097  RH  026%=      5-min Rain = 0
KVA1 190816Z 01007KT 09/M10 A3023 RMK A01 T00851097  RH  027%=      5-min Rain = 0
KVA1 190817Z 00005KT 08/M10 A3023 RMK A01 T00841096  RH  027%=      5-min Rain = 0
KVA1 190818Z 34005KT 09/M10 A3023 RMK A01 T00851096  RH  027%=      5-min Rain = 0
KVA1 190819Z 35007G13KT 09/M10 A3023 RMK A01 T00861097  RH  026%=      5-min Rain = 0
KVA1 190820Z 33007KT 09/M10 A3023 RMK A01 T00851096  RH  027%=      5-min Rain = 0
KVA1 190821Z 33009KT 09/M10 A3023 RMK A01 T00851096  RH  027%=      5-min Rain = 0
KVA1 190822Z 33011KT 09/M10 A3023 RMK A01 T00851096  RH  027%=      5-min Rain = 0
KVA1 190823Z 33012KT 09/M10 A3023 RMK A01 T00851096  RH  027%=      5-min Rain = 0
KVA1 190824Z 33010G15KT 09/M10 A3024 RMK A01 T00861095  RH  027%=      5-min Rain = 0
KVA1 190825Z 34009KT 09/M10 A3024 RMK A01 T00861096  RH  027%=      5-min Rain = 0
KVA1 190826Z 35010KT 09/M10 A3024 RMK A01 T00851096  RH  027%=      5-min Rain = 0
KVA1 190827Z 36011KT 09/M10 A3024 RMK A01 T00861095  RH  027%=      5-min Rain = 0
KVA1 190828Z 01014KT 09/M10 A3024 RMK A01 T00861095  RH  027%=      5-min Rain = 0
KVA1 190829Z 01009KT 09/M10 A3024 RMK A01 T00861095  RH  027%=      5-min Rain = 0
KVA1 190830Z 03008KT 09/M10 A3024 RMK A01 T00861096  RH  027%=      5-min Rain = 0
KVA1 190831Z 03007G12KT 09/M10 A3024 RMK A01 T00861096  RH  027%=      5-min Rain = 0
KVA1 190832Z 06005KT 09/M10 A3024 RMK A01 T00851095  RH  027%=      5-min Rain = 0
KVA1 190833Z 07010KT 09/M10 A3024 RMK A01 T00851095  RH  027%=      5-min Rain = 0
KVA1 190834Z 08009KT 09/M10 A3024 RMK A01 T00851096  RH  027%=      5-min Rain = 0
KVA1 190835Z 04009KT 09/M10 A3024 RMK A01 T00851095  RH  027%=      5-min Rain = 0
KVA1 190836Z 01008KT 09/M10 A3024 RMK A01 T00861096  RH  027%=      5-min Rain = 0
KVA1 190837Z 35009KT 08/M10 A3024 RMK A01 T00841096  RH  027%=      5-min Rain = 0
KVA1 190838Z 03008KT 08/M10 A3024 RMK A01 T00841095  RH  027%=      5-min Rain = 0
KVA1 190839Z 04006KT 08/M10 A3024 RMK A01 T00841096  RH  027%=      5-min Rain = 0
KVA1 190840Z 01004KT 08/M10 A3024 RMK A01 T00831096  RH  027%=      5-min Rain = 0
KVA1 190841Z 03006KT 08/M10 A3024 RMK A01 T00831095  RH  027%=      5-min Rain = 0
KVA1 190842Z 05005KT 08/M10 A3024 RMK A01 T00821095  RH  027%=      5-min Rain = 0
KVA1 190843Z 06005KT 08/M10 A3024 RMK A01 T00821096  RH  027%=      5-min Rain = 0
KVA1 190844Z 08006KT 08/M10 A3024 RMK A01 T00821095  RH  028%=      5-min Rain = 0
KVA1 190845Z 07006KT 08/M09 A3024 RMK A01 T00831094  RH  028%=      5-min Rain = 0
KVA1 190846Z 07007KT 08/M09 A3024 RMK A01 T00831093  RH  028%=      5-min Rain = 0
KVA1 190847Z 06008KT 08/M09 A3024 RMK A01 T00831092  RH  028%=      5-min Rain = 0
KVA1 190848Z 07008KT 08/M09 A3024 RMK A01 T00841093  RH  027%=      5-min Rain = 0
KVA1 190849Z 06006G12KT 09/M09 A3024 RMK A01 T00851093  RH  027%=      5-min Rain = 0
KVA1 190850Z 06009KT 09/M09 A3024 RMK A01 T00851094  RH  027%=      5-min Rain = 0
KVA1 190851Z 06008KT 09/M09 A3024 RMK A01 T00851093  RH  027%=      5-min Rain = 0
KVA1 190852Z 05007KT 09/M09 A3024 RMK A01 T00851094  RH  027%=      5-min Rain = 0
KVA1 190853Z 09003KT 09/M10 A3024 RMK A01 T00861095  RH  027%=      5-min Rain = 0
KVA1 190854Z 08006KT 09/M09 A3024 RMK A01 T00861093  RH  027%=      5-min Rain = 0
KVA1 190855Z 08009KT 09/M09 A3024 RMK A01 T00851093  RH  027%=      5-min Rain = 0
KVA1 190856Z 06005KT 08/M09 A3024 RMK A01 T00841092  RH  028%=      5-min Rain = 0
KVA1 190857Z 07006KT 08/M09 A3024 RMK A01 T00841092  RH  028%=      5-min Rain = 0
KVA1 190858Z 05007KT 08/M09 A3024 RMK A01 T00831093  RH  028%=      5-min Rain = 0
KVA1 190859Z 02005KT 08/M09 A3024 RMK A01 T00841094  RH  027%=      5-min Rain = 0
KVA1 190900Z 02005KT 08/M09 A3024 RMK A01 T00831094  RH  027%=      5-min Rain = 0
KVA1 190901Z 33006KT 08/M09 A3025 RMK A01 T00811094  RH  028%=      5-min Rain = 0
KVA1 190902Z 01008KT 08/M09 A3025 RMK A01 T00791094  RH  028%=      5-min Rain = 0
KVA1 190903Z 02011KT 08/M09 A3025 RMK A01 T00791092  RH  029%=      5-min Rain = 0
KVA1 190904Z 01009KT 08/M09 A3025 RMK A01 T00801091  RH  029%=      5-min Rain = 0
KVA1 190905Z 35009KT 08/M09 A3025 RMK A01 T00821090  RH  029%=      5-min Rain = 0
KVA1 190906Z 01007KT 08/M09 A3025 RMK A01 T00821090  RH  028%=      5-min Rain = 0
KVA1 190907Z 03009KT 08/M09 A3025 RMK A01 T00821091  RH  028%=      5-min Rain = 0
KVA1 190908Z 01006KT 08/M09 A3025 RMK A01 T00821091  RH  028%=      5-min Rain = 0
KVA1 190909Z 03006KT 08/M09 A3025 RMK A01 T00811091  RH  029%=      5-min Rain = 0
KVA1 190910Z 01006KT 08/M09 A3025 RMK A01 T00791091  RH  029%=      5-min Rain = 0
KVA1 190911Z 35005KT 08/M09 A3025 RMK A01 T00771091  RH  029%=      5-min Rain = 0
KVA1 190912Z 36006KT 08/M09 A3025 RMK A01 T00761090  RH  030%=      5-min Rain = 0
KVA1 190913Z 36008KT 08/M09 A3025 RMK A01 T00751089  RH  030%=      5-min Rain = 0
KVA1 190914Z 35009KT 07/M09 A3025 RMK A01 T00741089  RH  030%=      5-min Rain = 0
KVA1 190915Z 00009KT 07/M09 A3025 RMK A01 T00741089  RH  030%=      5-min Rain = 0
KVA1 190916Z 00008KT 07/M09 A3025 RMK A01 T00741089  RH  030%=      5-min Rain = 0
KVA1 190917Z 00007KT 07/M09 A3025 RMK A01 T00741089  RH  030%=      5-min Rain = 0
KVA1 190918Z 00007KT 07/M09 A3025 RMK A01 T00721089  RH  031%=      5-min Rain = 0
KVA1 190919Z 00008KT 07/M09 A3025 RMK A01 T00711088  RH  031%=      5-min Rain = 0
KVA1 190920Z 35007KT 07/M09 A3025 RMK A01 T00711088  RH  031%=      5-min Rain = 0
KVA1 190921Z 36007KT 07/M09 A3025 RMK A01 T00701088  RH  032%=      5-min Rain = 0
KVA1 190922Z 35007KT 07/M09 A3025 RMK A01 T00691088  RH  032%=      5-min Rain = 0
KVA1 190923Z 35006KT 07/M09 A3025 RMK A01 T00681087  RH  032%=      5-min Rain = 0
KVA1 190924Z 35009KT 07/M09 A3025 RMK A01 T00671087  RH  032%=      5-min Rain = 0
KVA1 190925Z 35008KT 07/M09 A3025 RMK A01 T00671087  RH  032%=      5-min Rain = 0
KVA1 190926Z 35007KT 07/M09 A3025 RMK A01 T00671087  RH  032%=      5-min Rain = 0
KVA1 190927Z 34007KT 07/M09 A3025 RMK A01 T00681087  RH  032%=      5-min Rain = 0
KVA1 190928Z 34008KT 07/M09 A3025 RMK A01 T00681086  RH  032%=      5-min Rain = 0
KVA1 190929Z 34008KT 07/M09 A3025 RMK A01 T00681086  RH  032%=      5-min Rain = 0
KVA1 190930Z 34008KT 07/M09 A3025 RMK A01 T00681086  RH  032%=      5-min Rain = 0
KVA1 190931Z 34008KT 07/M09 A3025 RMK A01 T00681087  RH  032%=      5-min Rain = 0
KVA1 190932Z 34007KT 07/M09 A3025 RMK A01 T00681086  RH  032%=      5-min Rain = 0
KVA1 190933Z 34008KT 07/M09 A3025 RMK A01 T00671087  RH  032%=      5-min Rain = 0
KVA1 190934Z 34008KT 07/M09 A3025 RMK A01 T00671086  RH  033%=      5-min Rain = 0
KVA1 190935Z 34008KT 07/M09 A3025 RMK A01 T00671086  RH  033%=      5-min Rain = 0
KVA1 190936Z 33008KT 07/M09 A3025 RMK A01 T00661086  RH  033%=      5-min Rain = 0
KVA1 190937Z 33008KT 07/M09 A3025 RMK A01 T00661086  RH  033%=      5-min Rain = 0
KVA1 190938Z 33008KT 07/M09 A3025 RMK A01 T00661086  RH  033%=      5-min Rain = 0
KVA1 190939Z 33008KT 07/M09 A3026 RMK A01 T00661086  RH  033%=      5-min Rain = 0
KVA1 190940Z 33008KT 07/M09 A3026 RMK A01 T00661085  RH  033%=      5-min Rain = 0
KVA1 190941Z 01006KT 07/M09 A3026 RMK A01 T00661086  RH  033%=      5-min Rain = 0
KVA1 190942Z 05005KT 07/M09 A3026 RMK A01 T00651086  RH  033%=      5-min Rain = 0
KVA1 190943Z 04005KT 06/M09 A3026 RMK A01 T00631086  RH  034%=      5-min Rain = 0
KVA1 190944Z 03004KT 06/M09 A3026 RMK A01 T00611086  RH  034%=      5-min Rain = 0
KVA1 190945Z 04003KT 06/M09 A3026 RMK A01 T00601087  RH  034%=      5-min Rain = 0
KVA1 190946Z 02004KT 06/M09 A3026 RMK A01 T00601087  RH  034%=      5-min Rain = 0
KVA1 190947Z 00008KT 06/M09 A3026 RMK A01 T00601087  RH  034%=      5-min Rain = 0
KVA1 190948Z 36006KT 06/M09 A3026 RMK A01 T00621086  RH  034%=      5-min Rain = 0
KVA1 190949Z 35005KT 06/M09 A3026 RMK A01 T00641086  RH  033%=      5-min Rain = 0
KVA1 190950Z 00005KT 06/M09 A3026 RMK A01 T00641086  RH  033%=      5-min Rain = 0
KVA1 190951Z 01005KT 06/M09 A3026 RMK A01 T00631086  RH  033%=      5-min Rain = 0
KVA1 190952Z 02005KT 06/M09 A3026 RMK A01 T00621086  RH  034%=      5-min Rain = 0
KVA1 190953Z 02004KT 06/M09 A3026 RMK A01 T00601087  RH  034%=      5-min Rain = 0
KVA1 190954Z 02004KT 06/M09 A3026 RMK A01 T00591086  RH  034%=      5-min Rain = 0
KVA1 190955Z 01004KT 06/M09 A3026 RMK A01 T00581086  RH  035%=      5-min Rain = 0
KVA1 190956Z 01003KT 06/M09 A3026 RMK A01 T00571086  RH  035%=      5-min Rain = 0
KVA1 190957Z 01003KT 06/M09 A3026 RMK A01 T00551086  RH  035%=      5-min Rain = 0
KVA1 190958Z 01004KT 06/M09 A3026 RMK A01 T00551086  RH  036%=      5-min Rain = 0
KVA1 190959Z 00004KT 05/M09 A3026 RMK A01 T00541085  RH  036%=      5-min Rain = 0
KVA1 191000Z 00004KT 05/M09 A3026 RMK A01 T00541085  RH  036%=      5-min Rain = 0
KVA1 191001Z 00004KT 05/M09 A3026 RMK A01 T00531085  RH  036%=      5-min Rain = 0
KVA1 191002Z 02005KT 05/M09 A3026 RMK A01 T00531085  RH  036%=      5-min Rain = 0
KVA1 191003Z 01005KT 05/M09 A3026 RMK A01 T00521085  RH  036%=      5-min Rain = 0
KVA1 191004Z 02004KT 05/M08 A3026 RMK A01 T00521084  RH  037%=      5-min Rain = 0
KVA1 191005Z 02004KT 05/M08 A3026 RMK A01 T00511084  RH  037%=      5-min Rain = 0
KVA1 191006Z 02004KT 05/M08 A3026 RMK A01 T00501084  RH  037%=      5-min Rain = 0
KVA1 191007Z 02004KT 05/M08 A3026 RMK A01 T00491084  RH  038%=      5-min Rain = 0
KVA1 191008Z 02006KT 05/M08 A3026 RMK A01 T00481084  RH  038%=      5-min Rain = 0
KVA1 191009Z 02006KT 05/M08 A3026 RMK A01 T00481084  RH  038%=      5-min Rain = 0
KVA1 191010Z 02006KT 05/M08 A3026 RMK A01 T00481084  RH  038%=      5-min Rain = 0
KVA1 191011Z 02007KT 05/M08 A3026 RMK A01 T00491083  RH  038%=      5-min Rain = 0
KVA1 191012Z 02008KT 05/M08 A3026 RMK A01 T00501083  RH  037%=      5-min Rain = 0
KVA1 191013Z 02008KT 05/M08 A3026 RMK A01 T00511083  RH  037%=      5-min Rain = 0
KVA1 191014Z 03008KT 05/M08 A3026 RMK A01 T00521083  RH  037%=      5-min Rain = 0
KVA1 191015Z 02006KT 05/M08 A3026 RMK A01 T00531083  RH  037%=      5-min Rain = 0
KVA1 191016Z 03007KT 05/M08 A3027 RMK A01 T00531083  RH  037%=      5-min Rain = 0
KVA1 191017Z 03007KT 05/M08 A3027 RMK A01 T00531083  RH  037%=      5-min Rain = 0
KVA1 191018Z 04006KT 05/M08 A3027 RMK A01 T00531083  RH  037%=      5-min Rain = 0
KVA1 191019Z 04006KT 05/M08 A3027 RMK A01 T00531083  RH  037%=      5-min Rain = 0
KVA1 191020Z 05005KT 05/M08 A3027 RMK A01 T00531083  RH  037%=      5-min Rain = 0
KVA1 191021Z 05005KT 05/M08 A3027 RMK A01 T00521083  RH  037%=      5-min Rain = 0
KVA1 191022Z 06006KT 05/M08 A3027 RMK A01 T00511083  RH  037%=      5-min Rain = 0
KVA1 191023Z 07004KT 05/M08 A3027 RMK A01 T00511082  RH  038%=      5-min Rain = 0
KVA1 191024Z 09004KT 05/M08 A3027 RMK A01 T00511082  RH  038%=      5-min Rain = 0
KVA1 191025Z 10004KT 05/M08 A3027 RMK A01 T00501082  RH  038%=      5-min Rain = 0
KVA1 191026Z 12004KT 05/M08 A3027 RMK A01 T00491082  RH  038%=      5-min Rain = 0
KVA1 191027Z 12004KT 05/M08 A3028 RMK A01 T00481083  RH  038%=      5-min Rain = 0
KVA1 191028Z 12003KT 05/M08 A3028 RMK A01 T00481083  RH  038%=      5-min Rain = 0
KVA1 191029Z 14003KT 05/M08 A3028 RMK A01 T00471083  RH  038%=      5-min Rain = 0
KVA1 191030Z 15005KT 05/M08 A3028 RMK A01 T00461083  RH  039%=      5-min Rain = 0
KVA1 191031Z 16005KT 04/M08 A3028 RMK A01 T00441083  RH  039%=      5-min Rain = 0
KVA1 191032Z 16005KT 04/M08 A3028 RMK A01 T00431083  RH  039%=      5-min Rain = 0
KVA1 191033Z 17005KT 04/M08 A3028 RMK A01 T00411084  RH  040%=      5-min Rain = 0
KVA1 191034Z 17006KT 04/M08 A3028 RMK A01 T00401083  RH  040%=      5-min Rain = 0
KVA1 191035Z 18006KT 04/M08 A3028 RMK A01 T00381083  RH  041%=      5-min Rain = 0
KVA1 191036Z 18007KT 04/M08 A3028 RMK A01 T00371082  RH  041%=      5-min Rain = 0
KVA1 191037Z 18005KT 04/M08 A3028 RMK A01 T00361083  RH  042%=      5-min Rain = 0
KVA1 191038Z 19004KT 04/M08 A3028 RMK A01 T00361083  RH  041%=      5-min Rain = 0
KVA1 191039Z 16007KT 04/M08 A3028 RMK A01 T00361083  RH  041%=      5-min Rain = 0
KVA1 191040Z 16008KT 04/M08 A3028 RMK A01 T00371082  RH  042%=      5-min Rain = 0
KVA1 191041Z 16008KT 04/M08 A3028 RMK A01 T00391081  RH  041%=      5-min Rain = 0
KVA1 191042Z 15006KT 05/M08 A3028 RMK A01 T00461079  RH  040%=      5-min Rain = 0
KVA1 191043Z 12005KT 05/M08 A3029 RMK A01 T00501080  RH  039%=      5-min Rain = 0
KVA1 191044Z 11005KT 05/M08 A3029 RMK A01 T00511080  RH  038%=      5-min Rain = 0
KVA1 191045Z 11006KT 05/M08 A3029 RMK A01 T00521080  RH  038%=      5-min Rain = 0
KVA1 191046Z 10004KT 06/M08 A3029 RMK A01 T00551079  RH  037%=      5-min Rain = 0
KVA1 191047Z 01003KT 06/M08 A3029 RMK A01 T00581079  RH  037%=      5-min Rain = 0
KVA1 191048Z 09003KT 06/M08 A3029 RMK A01 T00601079  RH  036%=      5-min Rain = 0
KVA1 191049Z 07004KT 06/M08 A3029 RMK A01 T00601080  RH  036%=      5-min Rain = 0
KVA1 191050Z 03005KT 06/M08 A3029 RMK A01 T00601080  RH  036%=      5-min Rain = 0
KVA1 191051Z 03006KT 06/M08 A3028 RMK A01 T00581081  RH  036%=      5-min Rain = 0
KVA1 191052Z 03006KT 06/M08 A3028 RMK A01 T00571080  RH  036%=      5-min Rain = 0
KVA1 191053Z 02005KT 06/M08 A3028 RMK A01 T00581080  RH  036%=      5-min Rain = 0
KVA1 191054Z 03005KT 06/M08 A3028 RMK A01 T00581080  RH  036%=      5-min Rain = 0
KVA1 191055Z 02008KT 06/M08 A3028 RMK A01 T00571080  RH  037%=      5-min Rain = 0
KVA1 191056Z 02010KT 06/M08 A3028 RMK A01 T00571079  RH  037%=      5-min Rain = 0
KVA1 191057Z 01009KT 06/M08 A3028 RMK A01 T00581078  RH  037%=      5-min Rain = 0
KVA1 191058Z 02010KT 06/M08 A3028 RMK A01 T00611077  RH  037%=      5-min Rain = 0
KVA1 191059Z 03009KT 06/M08 A3028 RMK A01 T00641076  RH  036%=      5-min Rain = 0
KVA1 191100Z 02009KT 07/M08 A3028 RMK A01 T00651077  RH  035%=      5-min Rain = 0
KVA1 191101Z 02008KT 07/M08 A3028 RMK A01 T00651079  RH  035%=      5-min Rain = 0
KVA1 191102Z 02006KT 06/M08 A3028 RMK A01 T00621079  RH  036%=      5-min Rain = 0
KVA1 191103Z 03007KT 06/M08 A3028 RMK A01 T00591079  RH  036%=      5-min Rain = 0
KVA1 191104Z 02008KT 06/M08 A3028 RMK A01 T00581079  RH  037%=      5-min Rain = 0
KVA1 191105Z 03007KT 06/M08 A3028 RMK A01 T00561079  RH  037%=      5-min Rain = 0
KVA1 191106Z 02008KT 06/M08 A3028 RMK A01 T00551079  RH  037%=      5-min Rain = 0
KVA1 191107Z 02007KT 06/M08 A3028 RMK A01 T00551079  RH  038%=      5-min Rain = 0
KVA1 191108Z 03008KT 05/M08 A3028 RMK A01 T00541078  RH  038%=      5-min Rain = 0
KVA1 191109Z 03007KT 05/M08 A3028 RMK A01 T00541078  RH  038%=      5-min Rain = 0
KVA1 191110Z 02007KT 05/M08 A3028 RMK A01 T00541078  RH  038%=      5-min Rain = 0
KVA1 191111Z 02007KT 05/M08 A3028 RMK A01 T00541078  RH  038%=      5-min Rain = 0
KVA1 191112Z 03008KT 05/M08 A3029 RMK A01 T00531078  RH  038%=      5-min Rain = 0
KVA1 191113Z 03008KT 05/M08 A3029 RMK A01 T00531078  RH  038%=      5-min Rain = 0
KVA1 191114Z 03008KT 05/M08 A3029 RMK A01 T00531078  RH  038%=      5-min Rain = 0
KVA1 191115Z 03007KT 05/M08 A3029 RMK A01 T00531079  RH  038%=      5-min Rain = 0
KVA1 191116Z 03006KT 05/M08 A3029 RMK A01 T00531079  RH  038%=      5-min Rain = 0
KVA1 191117Z 02006KT 05/M08 A3029 RMK A01 T00521079  RH  038%=      5-min Rain = 0
KVA1 191118Z 02007KT 05/M08 A3029 RMK A01 T00511079  RH  039%=      5-min Rain = 0
KVA1 191119Z 02007KT 05/M08 A3029 RMK A01 T00491079  RH  039%=      5-min Rain = 0
KVA1 191120Z 02007KT 05/M08 A3029 RMK A01 T00491079  RH  039%=      5-min Rain = 0
KVA1 191121Z 02006KT 05/M08 A3029 RMK A01 T00491079  RH  039%=      5-min Rain = 0
KVA1 191122Z 03006KT 05/M08 A3029 RMK A01 T00481079  RH  039%=      5-min Rain = 0
KVA1 191123Z 03005KT 05/M08 A3029 RMK A01 T00481079  RH  039%=      5-min Rain = 0
KVA1 191124Z 03005KT 05/M08 A3029 RMK A01 T00471079  RH  040%=      5-min Rain = 0
KVA1 191125Z 02005KT 05/M08 A3029 RMK A01 T00461079  RH  040%=      5-min Rain = 0
KVA1 191126Z 02005KT 05/M08 A3029 RMK A01 T00451079  RH  040%=      5-min Rain = 0
KVA1 191127Z 03004KT 04/M08 A3029 RMK A01 T00441079  RH  041%=      5-min Rain = 0
KVA1 191128Z 03004KT 04/M08 A3029 RMK A01 T00431079  RH  041%=      5-min Rain = 0
KVA1 191129Z 02004KT 04/M08 A3029 RMK A01 T00431078  RH  041%=      5-min Rain = 0
KVA1 191130Z 03004KT 04/M08 A3029 RMK A01 T00421079  RH  041%=      5-min Rain = 0
KVA1 191131Z 02003KT 04/M08 A3029 RMK A01 T00421079  RH  041%=      5-min Rain = 0
KVA1 191132Z 02003KT 04/M08 A3029 RMK A01 T00411079  RH  041%=      5-min Rain = 0
KVA1 191133Z 02003KT 04/M08 A3029 RMK A01 T00401079  RH  041%=      5-min Rain = 0
KVA1 191134Z 02003KT 04/M08 A3029 RMK A01 T00401079  RH  042%=      5-min Rain = 0
KVA1 191135Z 02003KT 04/M08 A3029 RMK A01 T00391079  RH  042%=      5-min Rain = 0
KVA1 191136Z 02002KT 04/M08 A3029 RMK A01 T00381079  RH  042%=      5-min Rain = 0
KVA1 191137Z 04002KT 04/M08 A3029 RMK A01 T00381080  RH  042%=      5-min Rain = 0
KVA1 191138Z 05002KT 04/M08 A3029 RMK A01 T00381079  RH  042%=      5-min Rain = 0
KVA1 191139Z 05001KT 04/M08 A3029 RMK A01 T00381079  RH  042%=      5-min Rain = 0
KVA1 191140Z 05001KT 04/M08 A3029 RMK A01 T00381079  RH  042%=      5-min Rain = 0
KVA1 191141Z 05000KT 04/M08 A303 RMK A01 T00371078  RH  043%=      5-min Rain = 0
KVA1 191142Z 00000KT 04/M08 A303 RMK A01 T00371077  RH  043%=      5-min Rain = 0
KVA1 191143Z 00000KT 04/M08 A303 RMK A01 T00361078  RH  043%=      5-min Rain = 0
KVA1 191144Z 00000KT 04/M08 A303 RMK A01 T00351079  RH  043%=      5-min Rain = 0
KVA1 191145Z 00000KT 03/M08 A303 RMK A01 T00331080  RH  043%=      5-min Rain = 0
KVA1 191146Z 36000KT 03/M08 A303 RMK A01 T00311081  RH  044%=      5-min Rain = 0
KVA1 191147Z 00000KT 03/M08 A303 RMK A01 T00291081  RH  044%=      5-min Rain = 0
KVA1 191148Z 01001KT 03/M08 A303 RMK A01 T00281081  RH  044%=      5-min Rain = 0
KVA1 191149Z 02000KT 03/M08 A303 RMK A01 T00271081  RH  045%=      5-min Rain = 0
KVA1 191150Z 00000KT 02/M08 A303 RMK A01 T00231083  RH  046%=      5-min Rain = 0
KVA1 191151Z 23000KT 02/M08 A303 RMK A01 T00201082  RH  047%=      5-min Rain = 0
KVA1 191152Z 19002KT 02/M08 A303 RMK A01 T00201080  RH  048%=      5-min Rain = 0
KVA1 191153Z 18002KT 02/M08 A303 RMK A01 T00191080  RH  048%=      5-min Rain = 0
KVA1 191154Z 19003KT 02/M08 A303 RMK A01 T00181080  RH  048%=      5-min Rain = 0
KVA1 191155Z 18003KT 02/M08 A303 RMK A01 T00181080  RH  048%=      5-min Rain = 0
KVA1 191156Z 19002KT 02/M08 A303 RMK A01 T00171080  RH  049%=      5-min Rain = 0
KVA1 191157Z 20003KT 02/M08 A303 RMK A01 T00161080  RH  049%=      5-min Rain = 0
KVA1 191158Z 20002KT 02/M08 A303 RMK A01 T00161080  RH  049%=      5-min Rain = 0
KVA1 191159Z 20002KT 02/M08 A303 RMK A01 T00161080  RH  049%=      5-min Rain = 0
KVA1 191200Z 20002KT 02/M08 A303 RMK A01 T00151081  RH  049%=      5-min Rain = 0
KVA1 191201Z 19002KT 01/M08 A3031 RMK A01 T00141081  RH  049%=      5-min Rain = 0
KVA1 191202Z 20002KT 01/M08 A3031 RMK A01 T00131082  RH  049%=      5-min Rain = 0
KVA1 191203Z 20002KT 01/M08 A3031 RMK A01 T00121082  RH  050%=      5-min Rain = 0
KVA1 191204Z 19003KT 01/M08 A3031 RMK A01 T00121081  RH  050%=      5-min Rain = 0
KVA1 191205Z 18003KT 01/M08 A3031 RMK A01 T00111080  RH  050%=      5-min Rain = 0
KVA1 191206Z 18003KT 01/M08 A3031 RMK A01 T00121080  RH  051%=      5-min Rain = 0
KVA1 191207Z 17003KT 01/M08 A3031 RMK A01 T00111080  RH  051%=      5-min Rain = 0
KVA1 191208Z 17003KT 01/M08 A3031 RMK A01 T00111080  RH  050%=      5-min Rain = 0
KVA1 191209Z 17004KT 01/M08 A3031 RMK A01 T00121080  RH  050%=      5-min Rain = 0
KVA1 191210Z 16004KT 01/M08 A3031 RMK A01 T00141080  RH  050%=      5-min Rain = 0
KVA1 191211Z 16004KT 01/M08 A3031 RMK A01 T00141080  RH  050%=      5-min Rain = 0
KVA1 191212Z 16004KT 01/M08 A3032 RMK A01 T00141079  RH  050%=      5-min Rain = 0
KVA1 191213Z 16004KT 01/M08 A3032 RMK A01 T00141079  RH  050%=      5-min Rain = 0
KVA1 191214Z 16003KT 02/M08 A3032 RMK A01 T00151079  RH  050%=      5-min Rain = 0
KVA1 191215Z 15002KT 02/M08 A3032 RMK A01 T00161079  RH  049%=      5-min Rain = 0
KVA1 191216Z 15003KT 02/M08 A3032 RMK A01 T00171080  RH  049%=      5-min Rain = 0
KVA1 191217Z 15003KT 02/M08 A3032 RMK A01 T00171080  RH  049%=      5-min Rain = 0
KVA1 191218Z 15003KT 02/M08 A3032 RMK A01 T00181080  RH  048%=      5-min Rain = 0
KVA1 191219Z 13003KT 02/M08 A3032 RMK A01 T00181080  RH  048%=      5-min Rain = 0
KVA1 191220Z 09002KT 02/M08 A3032 RMK A01 T00181080  RH  048%=      5-min Rain = 0
KVA1 191221Z 11002KT 02/M08 A3032 RMK A01 T00181080  RH  048%=      5-min Rain = 0
KVA1 191222Z 12003KT 02/M08 A3032 RMK A01 T00191079  RH  048%=      5-min Rain = 0
KVA1 191223Z 12004KT 02/M08 A3032 RMK A01 T00191079  RH  048%=      5-min Rain = 0
KVA1 191224Z 13003KT 02/M08 A3032 RMK A01 T00201079  RH  048%=      5-min Rain = 0
KVA1 191225Z 11002KT 02/M08 A3032 RMK A01 T00181079  RH  049%=      5-min Rain = 0
KVA1 191226Z 11003KT 02/M08 A3032 RMK A01 T00181079  RH  049%=      5-min Rain = 0
KVA1 191227Z 09003KT 02/M08 A3032 RMK A01 T00181079  RH  049%=      5-min Rain = 0
KVA1 191228Z 07002KT 02/M08 A3032 RMK A01 T00211078  RH  048%=      5-min Rain = 0
KVA1 191229Z 08003KT 02/M08 A3032 RMK A01 T00231078  RH  047%=      5-min Rain = 0
KVA1 191230Z 08002KT 02/M08 A3032 RMK A01 T00231079  RH  047%=      5-min Rain = 0
KVA1 191231Z 10002KT 02/M08 A3032 RMK A01 T00231079  RH  047%=      5-min Rain = 0
KVA1 191232Z 08002KT 02/M08 A3032 RMK A01 T00211079  RH  047%=      5-min Rain = 0
KVA1 191233Z 07002KT 02/M08 A3032 RMK A01 T00191079  RH  048%=      5-min Rain = 0
KVA1 191234Z 08002KT 02/M08 A3032 RMK A01 T00181079  RH  048%=      5-min Rain = 0
KVA1 191235Z 08002KT 02/M08 A3032 RMK A01 T00171080  RH  049%=      5-min Rain = 0
KVA1 191236Z 08002KT 02/M08 A3032 RMK A01 T00151080  RH  049%=      5-min Rain = 0
KVA1 191237Z 09002KT 01/M08 A3032 RMK A01 T00141081  RH  049%=      5-min Rain = 0
KVA1 191238Z 08002KT 01/M08 A3032 RMK A01 T00121082  RH  049%=      5-min Rain = 0
KVA1 191239Z 08000KT 01/M09 A3033 RMK A01 T00071087  RH  049%=      5-min Rain = 0
KVA1 191240Z 10000KT 00/M09 A3033 RMK A01 T00041087  RH  051%=      5-min Rain = 0
KVA1 191241Z 11001KT 00/M08 A3033 RMK A01 T00041084  RH  052%=      5-min Rain = 0
KVA1 191242Z 12000KT 00/M08 A3033 RMK A01 T00041082  RH  052%=      5-min Rain = 0
KVA1 191243Z 16000KT 00/M08 A3033 RMK A01 T00041083  RH  052%=      5-min Rain = 0
KVA1 191244Z 18000KT 00/M08 A3033 RMK A01 T00031084  RH  052%=      5-min Rain = 0
KVA1 191245Z 21001KT 00/M09 A3033 RMK A01 T00011085  RH  052%=      5-min Rain = 0
KVA1 191246Z 22001KT M00/M09 A3033 RMK A01 T10021086  RH  053%=      5-min Rain = 0
KVA1 191247Z 23001KT M00/M09 A3033 RMK A01 T10041087  RH  054%=      5-min Rain = 0
KVA1 191248Z 23002KT M01/M09 A3033 RMK A01 T10061087  RH  054%=      5-min Rain = 0
KVA1 191249Z 24002KT M01/M09 A3033 RMK A01 T10071087  RH  055%=      5-min Rain = 0
KVA1 191250Z 24002KT M01/M09 A3033 RMK A01 T10081085  RH  056%=      5-min Rain = 0
KVA1 191251Z 25001KT M01/M08 A3033 RMK A01 T10061083  RH  056%=      5-min Rain = 0
KVA1 191252Z 26003KT M01/M08 A3033 RMK A01 T10051083  RH  056%=      5-min Rain = 0
KVA1 191253Z 26002KT M01/M08 A3033 RMK A01 T10061083  RH  056%=      5-min Rain = 0
KVA1 191254Z 27002KT M01/M08 A3034 RMK A01 T10051081  RH  056%=      5-min Rain = 0
KVA1 191255Z 27002KT 00/08 A3034 RMK A01 T00-00-78  RH  056%=      5-min Rain = 0
KVA1 191256Z 25002KT 01/M08 A3034 RMK A01 T00071075  RH  054%=      5-min Rain = 0
KVA1 191257Z 27001KT 01/M08 A3034 RMK A01 T00121076  RH  052%=      5-min Rain = 0
KVA1 191258Z 33001KT 01/M08 A3034 RMK A01 T00131079  RH  050%=      5-min Rain = 0
KVA1 191259Z 33001KT 01/M08 A3034 RMK A01 T00101083  RH  050%=      5-min Rain = 0
KVA1 191300Z 33002KT 01/M08 A3034 RMK A01 T00081083  RH  051%=      5-min Rain = 0
KVA1 191301Z 34002KT 01/M08 A3034 RMK A01 T00071083  RH  051%=      5-min Rain = 0
KVA1 191302Z 35004KT 01/M08 A3034 RMK A01 T00061082  RH  052%=      5-min Rain = 0
KVA1 191303Z 33003KT 01/M08 A3034 RMK A01 T00071081  RH  052%=      5-min Rain = 0
KVA1 191304Z 35003KT 01/M08 A3034 RMK A01 T00071081  RH  052%=      5-min Rain = 0
KVA1 191305Z 35003KT 01/M08 A3034 RMK A01 T00051082  RH  052%=      5-min Rain = 0
KVA1 191306Z 34003KT 01/M08 A3034 RMK A01 T00061081  RH  052%=      5-min Rain = 0
KVA1 191307Z 36003KT 01/M08 A3034 RMK A01 T00051082  RH  052%=      5-min Rain = 0
KVA1 191308Z 35003KT 00/M08 A3034 RMK A01 T00031083  RH  052%=      5-min Rain = 0
KVA1 191309Z 35003KT 00/M08 A3034 RMK A01 T00021082  RH  053%=      5-min Rain = 0
KVA1 191310Z 01003KT 00/M08 A3034 RMK A01 T00011082  RH  053%=      5-min Rain = 0
KVA1 191311Z 01003KT 00/08 A3034 RMK A01 T00000-82  RH  054%=      5-min Rain = 0
KVA1 191312Z 01003KT 00/08 A3034 RMK A01 T00-00-82  RH  054%=      5-min Rain = 0
KVA1 191313Z 01002KT M00/M08 A3034 RMK A01 T10011082  RH  054%=      5-min Rain = 0
KVA1 191314Z 00002KT M00/M08 A3034 RMK A01 T10011083  RH  054%=      5-min Rain = 0
KVA1 191315Z 01002KT M00/M08 A3034 RMK A01 T10011082  RH  055%=      5-min Rain = 0
KVA1 191316Z 01002KT M00/M08 A3034 RMK A01 T10011079  RH  055%=      5-min Rain = 0
KVA1 191317Z 36001KT M00/M08 A3034 RMK A01 T10011080  RH  056%=      5-min Rain = 0
KVA1 191318Z 33001KT M00/M08 A3035 RMK A01 T10031080  RH  056%=      5-min Rain = 0
KVA1 191319Z 32000KT M00/M08 A3035 RMK A01 T10031080  RH  056%=      5-min Rain = 0
KVA1 191320Z 29001KT M00/M08 A3035 RMK A01 T10041081  RH  056%=      5-min Rain = 0
KVA1 191321Z 24001KT M01/M08 A3035 RMK A01 T10051082  RH  056%=      5-min Rain = 0
KVA1 191322Z 23002KT M01/M08 A3035 RMK A01 T10051083  RH  056%=      5-min Rain = 0
KVA1 191323Z 22003KT M01/M08 A3035 RMK A01 T10061082  RH  056%=      5-min Rain = 0
KVA1 191324Z 22003KT M01/M08 A3035 RMK A01 T10071082  RH  057%=      5-min Rain = 0
KVA1 191325Z 21003KT M01/M08 A3035 RMK A01 T10071081  RH  057%=      5-min Rain = 0
KVA1 191326Z 21003KT M01/M08 A3035 RMK A01 T10071081  RH  057%=      5-min Rain = 0
KVA1 191327Z 21003KT M01/M08 A3035 RMK A01 T10071081  RH  057%=      5-min Rain = 0
KVA1 191328Z 20003KT M01/M08 A3035 RMK A01 T10071081  RH  057%=      5-min Rain = 0
KVA1 191329Z 20002KT M01/M08 A3035 RMK A01 T10061080  RH  057%=      5-min Rain = 0
KVA1 191330Z 20002KT M01/M08 A3035 RMK A01 T10051080  RH  057%=      5-min Rain = 0
KVA1 191331Z 21002KT M00/M08 A3035 RMK A01 T10041080  RH  057%=      5-min Rain = 0
KVA1 191332Z 21002KT M00/M08 A3035 RMK A01 T10041081  RH  056%=      5-min Rain = 0
KVA1 191333Z 21002KT M01/M08 A3035 RMK A01 T10051081  RH  056%=      5-min Rain = 0
KVA1 191334Z 22001KT M01/M08 A3035 RMK A01 T10051082  RH  056%=      5-min Rain = 0
KVA1 191335Z 22001KT M01/M08 A3035 RMK A01 T10061082  RH  056%=      5-min Rain = 0
KVA1 191336Z 22000KT M01/M08 A3035 RMK A01 T10061082  RH  057%=      5-min Rain = 0
KVA1 191337Z 22000KT M01/M08 A3035 RMK A01 T10071083  RH  056%=      5-min Rain = 0
KVA1 191338Z 00000KT M01/M08 A3035 RMK A01 T10081084  RH  057%=      5-min Rain = 0
KVA1 191339Z 00000KT M01/M08 A3035 RMK A01 T10111084  RH  057%=      5-min Rain = 0
KVA1 191340Z 00000KT M01/M08 A3035 RMK A01 T10121084  RH  058%=      5-min Rain = 0
KVA1 191341Z 00000KT M01/M08 A3035 RMK A01 T10141084  RH  059%=      5-min Rain = 0
KVA1 191342Z 10000KT M01/M08 A3035 RMK A01 T10141083  RH  059%=      5-min Rain = 0
KVA1 191343Z 10000KT M02/M08 A3036 RMK A01 T10151083  RH  060%=      5-min Rain = 0
KVA1 191344Z 10000KT M02/M08 A3036 RMK A01 T10161083  RH  060%=      5-min Rain = 0
KVA1 191345Z 00000KT M02/M08 A3036 RMK A01 T10161082  RH  060%=      5-min Rain = 0
KVA1 191346Z 00000KT M02/M08 A3036 RMK A01 T10151082  RH  060%=      5-min Rain = 0
KVA1 191347Z 00000KT M02/M08 A3036 RMK A01 T10151082  RH  060%=      5-min Rain = 0
KVA1 191348Z 00000KT M02/M08 A3036 RMK A01 T10151083  RH  060%=      5-min Rain = 0
KVA1 191349Z 00000KT M02/M08 A3036 RMK A01 T10161084  RH  060%=      5-min Rain = 0
KVA1 191350Z 00000KT M02/M08 A3036 RMK A01 T10171084  RH  060%=      5-min Rain = 0
KVA1 191351Z 00000KT M02/M09 A3036 RMK A01 T10191085  RH  061%=      5-min Rain = 0
KVA1 191352Z 00000KT M02/M09 A3036 RMK A01 T10191085  RH  061%=      5-min Rain = 0
KVA1 191353Z 00000KT M02/M09 A3036 RMK A01 T10211085  RH  061%=      5-min Rain = 0
KVA1 191354Z 00000KT M02/M09 A3036 RMK A01 T10211085  RH  062%=      5-min Rain = 0
KVA1 191355Z 00000KT M02/M08 A3036 RMK A01 T10201083  RH  062%=      5-min Rain = 0
KVA1 191356Z 00000KT M02/M08 A3036 RMK A01 T10201083  RH  062%=      5-min Rain = 0
KVA1 191357Z 00000KT M02/M08 A3036 RMK A01 T10201084  RH  062%=      5-min Rain = 0
KVA1 191358Z 00000KT M02/M08 A3036 RMK A01 T10211084  RH  062%=      5-min Rain = 0
KVA1 191359Z 00000KT M02/M08 A3036 RMK A01 T10211084  RH  062%=      5-min Rain = 0
KVA1 191400Z 00000KT M02/M08 A3036 RMK A01 T10201083  RH  062%=      5-min Rain = 0
KVA1 191401Z 00000KT M02/M08 A3036 RMK A01 T10191083  RH  062%=      5-min Rain = 0
KVA1 191402Z 00000KT M02/M08 A3036 RMK A01 T10191083  RH  061%=      5-min Rain = 0
KVA1 191403Z 00000KT M02/M08 A3036 RMK A01 T10191083  RH  061%=      5-min Rain = 0
KVA1 191404Z 00000KT M02/M08 A3037 RMK A01 T10161081  RH  061%=      5-min Rain = 0
KVA1 191405Z 26000KT M02/M08 A3037 RMK A01 T10161083  RH  060%=      5-min Rain = 0
KVA1 191406Z 27001KT M02/M08 A3037 RMK A01 T10161083  RH  060%=      5-min Rain = 0
KVA1 191407Z 27001KT M01/M08 A3037 RMK A01 T10121080  RH  060%=      5-min Rain = 0
KVA1 191408Z 27001KT M01/M08 A3037 RMK A01 T10121083  RH  059%=      5-min Rain = 0
KVA1 191409Z 28002KT M01/M08 A3037 RMK A01 T10131084  RH  059%=      5-min Rain = 0
KVA1 191410Z 28002KT M02/M08 A3037 RMK A01 T10151084  RH  059%=      5-min Rain = 0
KVA1 191411Z 28002KT M01/M08 A3037 RMK A01 T10141083  RH  059%=      5-min Rain = 0
KVA1 191412Z 29002KT M01/M08 A3037 RMK A01 T10141083  RH  059%=      5-min Rain = 0
KVA1 191413Z 28002KT M01/M08 A3037 RMK A01 T10141083  RH  059%=      5-min Rain = 0
KVA1 191414Z 26003KT M01/M08 A3037 RMK A01 T10131083  RH  059%=      5-min Rain = 0
KVA1 191415Z 27003KT M01/M08 A3037 RMK A01 T10131083  RH  059%=      5-min Rain = 0
KVA1 191416Z 26003KT M01/M08 A3037 RMK A01 T10131082  RH  059%=      5-min Rain = 0
KVA1 191417Z 27003KT M01/M08 A3037 RMK A01 T10121081  RH  059%=      5-min Rain = 0
KVA1 191418Z 26004KT M01/M08 A3037 RMK A01 T10101080  RH  059%=      5-min Rain = 0
KVA1 191419Z 26003KT M01/M08 A3037 RMK A01 T10081079  RH  058%=      5-min Rain = 0
KVA1 191420Z 26004KT M01/M08 A3037 RMK A01 T10061079  RH  058%=      5-min Rain = 0
KVA1 191421Z 26004KT M01/M08 A3038 RMK A01 T10051078  RH  057%=      5-min Rain = 0
KVA1 191422Z 26004KT M00/M08 A3038 RMK A01 T10031078  RH  057%=      5-min Rain = 0
KVA1 191423Z 26004KT M00/M08 A3038 RMK A01 T10021077  RH  057%=      5-min Rain = 0
KVA1 191424Z 27004KT 00/08 A3038 RMK A01 T00-00-76  RH  056%=      5-min Rain = 0
KVA1 191425Z 27004KT 00/M08 A3038 RMK A01 T00011076  RH  056%=      5-min Rain = 0
KVA1 191426Z 28004KT 00/M08 A3038 RMK A01 T00021076  RH  056%=      5-min Rain = 0
KVA1 191427Z 28004KT 00/M08 A3038 RMK A01 T00031075  RH  055%=      5-min Rain = 0
KVA1 191428Z 28004KT 00/M08 A3038 RMK A01 T00041076  RH  055%=      5-min Rain = 0
KVA1 191429Z 29004KT 01/M08 A3038 RMK A01 T00061076  RH  054%=      5-min Rain = 0
KVA1 191430Z 29004KT 01/M08 A3038 RMK A01 T00071076  RH  054%=      5-min Rain = 0
KVA1 191431Z 30004KT 01/M08 A3038 RMK A01 T00091075  RH  053%=      5-min Rain = 0
KVA1 191432Z 30003KT 01/M08 A3038 RMK A01 T00111075  RH  053%=      5-min Rain = 0
KVA1 191433Z 30004KT 01/M07 A3038 RMK A01 T00131074  RH  053%=      5-min Rain = 0
KVA1 191434Z 31004KT 02/M07 A3038 RMK A01 T00151074  RH  052%=      5-min Rain = 0
KVA1 191435Z 31004KT 02/M07 A3038 RMK A01 T00161073  RH  051%=      5-min Rain = 0
KVA1 191436Z 31003KT 02/M07 A3039 RMK A01 T00181072  RH  051%=      5-min Rain = 0
KVA1 191437Z 31002KT 02/M07 A3039 RMK A01 T00191072  RH  051%=      5-min Rain = 0
KVA1 191438Z 31003KT 02/M07 A3039 RMK A01 T00211072  RH  050%=      5-min Rain = 0
KVA1 191439Z 30003KT 02/M07 A3039 RMK A01 T00221071  RH  050%=      5-min Rain = 0
KVA1 191440Z 30004KT 02/M07 A3039 RMK A01 T00241071  RH  050%=      5-min Rain = 0
KVA1 191441Z 30004KT 03/M07 A3039 RMK A01 T00251071  RH  049%=      5-min Rain = 0
KVA1 191442Z 30003KT 03/M07 A3039 RMK A01 T00261071  RH  049%=      5-min Rain = 0
KVA1 191443Z 29003KT 03/M07 A3039 RMK A01 T00281071  RH  048%=      5-min Rain = 0
KVA1 191444Z 29003KT 03/M07 A3039 RMK A01 T00291070  RH  048%=      5-min Rain = 0
KVA1 191445Z 29003KT 03/M07 A3039 RMK A01 T00301071  RH  047%=      5-min Rain = 0
KVA1 191446Z 29002KT 03/M07 A3039 RMK A01 T00311072  RH  047%=      5-min Rain = 0
KVA1 191447Z 29001KT 03/M07 A3039 RMK A01 T00321071  RH  047%=      5-min Rain = 0
KVA1 191448Z 29003KT 03/M07 A3039 RMK A01 T00331071  RH  047%=      5-min Rain = 0
KVA1 191449Z 29003KT 03/M07 A3039 RMK A01 T00341071  RH  046%=      5-min Rain = 0
KVA1 191450Z 30003KT 04/M07 A3039 RMK A01 T00351070  RH  046%=      5-min Rain = 0
KVA1 191451Z 29002KT 04/M07 A3039 RMK A01 T00361070  RH  046%=      5-min Rain = 0
KVA1 191452Z 30002KT 04/M07 A3039 RMK A01 T00381069  RH  046%=      5-min Rain = 0
KVA1 191453Z 30002KT 04/M07 A3039 RMK A01 T00391069  RH  045%=      5-min Rain = 0
KVA1 191454Z 31003KT 04/M07 A3039 RMK A01 T00411068  RH  045%=      5-min Rain = 0
KVA1 191455Z 31002KT 04/M07 A3039 RMK A01 T00421067  RH  045%=      5-min Rain = 0
KVA1 191456Z 31002KT 04/M07 A304 RMK A01 T00441066  RH  045%=      5-min Rain = 0
KVA1 191457Z 31002KT 05/M07 A304 RMK A01 T00451066  RH  044%=      5-min Rain = 0
KVA1 191458Z 31001KT 05/M07 A304 RMK A01 T00461065  RH  044%=      5-min Rain = 0
KVA1 191459Z 34002KT 05/M07 A304 RMK A01 T00471065  RH  044%=      5-min Rain = 0
KVA1 191500Z 34002KT 05/M06 A304 RMK A01 T00491064  RH  044%=      5-min Rain = 0
KVA1 191501Z 00001KT 05/M06 A304 RMK A01 T00501063  RH  044%=      5-min Rain = 0
KVA1 191502Z 34002KT 05/M06 A304 RMK A01 T00521062  RH  043%=      5-min Rain = 0
KVA1 191503Z 34002KT 05/M06 A304 RMK A01 T00531062  RH  043%=      5-min Rain = 0
KVA1 191504Z 36003KT 05/M06 A304 RMK A01 T00541061  RH  043%=      5-min Rain = 0
KVA1 191505Z 35003KT 05/M06 A304 RMK A01 T00541061  RH  043%=      5-min Rain = 0
KVA1 191506Z 35003KT 06/M06 A304 RMK A01 T00551061  RH  043%=      5-min Rain = 0
KVA1 191507Z 36003KT 06/M06 A304 RMK A01 T00551060  RH  043%=      5-min Rain = 0
KVA1 191508Z 01003KT 06/M06 A304 RMK A01 T00551060  RH  043%=      5-min Rain = 0
KVA1 191509Z 01003KT 06/M06 A304 RMK A01 T00571058  RH  043%=      5-min Rain = 0
KVA1 191510Z 02003KT 06/M06 A304 RMK A01 T00571057  RH  044%=      5-min Rain = 0
KVA1 191511Z 02003KT 06/M06 A304 RMK A01 T00581057  RH  043%=      5-min Rain = 0
KVA1 191512Z 02002KT 06/M06 A304 RMK A01 T00581058  RH  043%=      5-min Rain = 0
KVA1 191513Z 03002KT 06/M06 A304 RMK A01 T00581057  RH  043%=      5-min Rain = 0
KVA1 191514Z 02003KT 06/M06 A304 RMK A01 T00591056  RH  043%=      5-min Rain = 0
KVA1 191515Z 02003KT 06/M06 A304 RMK A01 T00611055  RH  043%=      5-min Rain = 0
KVA1 191516Z 03002KT 06/M06 A304 RMK A01 T00621056  RH  043%=      5-min Rain = 0
KVA1 191517Z 01001KT 06/M06 A304 RMK A01 T00621057  RH  042%=      5-min Rain = 0
KVA1 191518Z 06001KT 06/M06 A304 RMK A01 T00621056  RH  043%=      5-min Rain = 0
KVA1 191519Z 06001KT 06/M06 A304 RMK A01 T00631055  RH  042%=      5-min Rain = 0
KVA1 191520Z 07003KT 06/M05 A304 RMK A01 T00641053  RH  043%=      5-min Rain = 0
KVA1 191521Z 08003KT 06/M05 A304 RMK A01 T00641052  RH  043%=      5-min Rain = 0
KVA1 191522Z 08003KT 07/M05 A304 RMK A01 T00651051  RH  043%=      5-min Rain = 0
KVA1 191523Z 06003KT 07/M05 A304 RMK A01 T00651051  RH  043%=      5-min Rain = 0
KVA1 191524Z 06002KT 07/M05 A304 RMK A01 T00661051  RH  043%=      5-min Rain = 0
KVA1 191525Z 04002KT 07/M05 A304 RMK A01 T00661051  RH  043%=      5-min Rain = 0
KVA1 191526Z 04004KT 07/M05 A304 RMK A01 T00661050  RH  043%=      5-min Rain = 0
KVA1 191527Z 07004KT 07/M05 A304 RMK A01 T00661050  RH  043%=      5-min Rain = 0
KVA1 191528Z 07002KT 07/M05 A304 RMK A01 T00661051  RH  043%=      5-min Rain = 0
KVA1 191529Z 05002KT 07/M05 A304 RMK A01 T00651050  RH  044%=      5-min Rain = 0
KVA1 191530Z 03001KT 07/M05 A3041 RMK A01 T00651050  RH  043%=      5-min Rain = 0
KVA1 191531Z 03002KT 07/M05 A3041 RMK A01 T00661050  RH  043%=      5-min Rain = 0
KVA1 191532Z 04004KT 07/M05 A3041 RMK A01 T00671049  RH  043%=      5-min Rain = 0
KVA1 191533Z 05005KT 07/M05 A3041 RMK A01 T00671051  RH  043%=      5-min Rain = 0
KVA1 191534Z 06003KT 07/M05 A3041 RMK A01 T00661052  RH  043%=      5-min Rain = 0
KVA1 191535Z 07003KT 07/M05 A3041 RMK A01 T00651052  RH  043%=      5-min Rain = 0
KVA1 191536Z 08002KT 07/M05 A3041 RMK A01 T00651052  RH  043%=      5-min Rain = 0
KVA1 191537Z 09002KT 07/M05 A3041 RMK A01 T00651050  RH  043%=      5-min Rain = 0
KVA1 191538Z 08003KT 07/M05 A3041 RMK A01 T00671049  RH  043%=      5-min Rain = 0
KVA1 191539Z 06003KT 07/M05 A3041 RMK A01 T00691049  RH  043%=      5-min Rain = 0
KVA1 191540Z 05004KT 07/M05 A3041 RMK A01 T00691050  RH  042%=      5-min Rain = 0
KVA1 191541Z 05002KT 07/M05 A3041 RMK A01 T00681052  RH  042%=      5-min Rain = 0
KVA1 191542Z 04001KT 07/M05 A3041 RMK A01 T00671052  RH  042%=      5-min Rain = 0
KVA1 191543Z 05002KT 07/M05 A3041 RMK A01 T00671052  RH  042%=      5-min Rain = 0
KVA1 191544Z 07003KT 07/M05 A3041 RMK A01 T00671051  RH  043%=      5-min Rain = 0
KVA1 191545Z 06002KT 07/M05 A3041 RMK A01 T00681051  RH  042%=      5-min Rain = 0
KVA1 191546Z 05002KT 07/M05 A3041 RMK A01 T00691052  RH  042%=      5-min Rain = 0
KVA1 191547Z 04002KT 07/M05 A3041 RMK A01 T00691052  RH  042%=      5-min Rain = 0
KVA1 191548Z 02002KT 07/M05 A3041 RMK A01 T00691052  RH  042%=      5-min Rain = 0
KVA1 191549Z 01001KT 07/M05 A3041 RMK A01 T00691052  RH  042%=      5-min Rain = 0
KVA1 191550Z 03002KT 07/M05 A3041 RMK A01 T00691052  RH  042%=      5-min Rain = 0
KVA1 191551Z 04003KT 07/M05 A3041 RMK A01 T00711052  RH  041%=      5-min Rain = 0
KVA1 191552Z 07002KT 07/M05 A3041 RMK A01 T00701052  RH  041%=      5-min Rain = 0
KVA1 191553Z 10002KT 07/M05 A3041 RMK A01 T00701052  RH  042%=      5-min Rain = 0
KVA1 191554Z 12002KT 07/M05 A3041 RMK A01 T00711052  RH  041%=      5-min Rain = 0
KVA1 191555Z 13002KT 07/M05 A3041 RMK A01 T00721052  RH  041%=      5-min Rain = 0
KVA1 191556Z 11002KT 07/M05 A3041 RMK A01 T00731052  RH  041%=      5-min Rain = 0
KVA1 191557Z 09002KT 07/M05 A3041 RMK A01 T00741051  RH  041%=      5-min Rain = 0
KVA1 191558Z 04001KT 08/M05 A3041 RMK A01 T00751050  RH  041%=      5-min Rain = 0
KVA1 191559Z 02002KT 08/M05 A3042 RMK A01 T00751049  RH  041%=      5-min Rain = 0
KVA1 191600Z 02003KT 08/M05 A3042 RMK A01 T00761049  RH  041%=      5-min Rain = 0
KVA1 191601Z 35003KT 08/M05 A3042 RMK A01 T00751052  RH  040%=      5-min Rain = 0
KVA1 191602Z 34002KT 07/M05 A3042 RMK A01 T00731053  RH  041%=      5-min Rain = 0
KVA1 191603Z 33001KT 07/M05 A3042 RMK A01 T00721053  RH  041%=      5-min Rain = 0
KVA1 191604Z 02001KT 07/M05 A3042 RMK A01 T00701053  RH  041%=      5-min Rain = 0
KVA1 191605Z 00002KT 07/M05 A3042 RMK A01 T00711052  RH  041%=      5-min Rain = 0
KVA1 191606Z 35002KT 07/M05 A3042 RMK A01 T00721051  RH  041%=      5-min Rain = 0
KVA1 191607Z 35002KT 07/M05 A3042 RMK A01 T00731052  RH  041%=      5-min Rain = 0
KVA1 191608Z 35001KT 07/M05 A3042 RMK A01 T00731053  RH  040%=      5-min Rain = 0
KVA1 191609Z 29000KT 07/M05 A3042 RMK A01 T00731053  RH  040%=      5-min Rain = 0
KVA1 191610Z 35001KT 08/M05 A3042 RMK A01 T00751051  RH  040%=      5-min Rain = 0
KVA1 191611Z 03004KT 08/M05 A3042 RMK A01 T00771052  RH  040%=      5-min Rain = 0
KVA1 191612Z 03003KT 08/M05 A3042 RMK A01 T00781052  RH  039%=      5-min Rain = 0
KVA1 191613Z 02001KT 08/M05 A3042 RMK A01 T00761053  RH  039%=      5-min Rain = 0
KVA1 191614Z 35001KT 08/M05 A3042 RMK A01 T00761052  RH  040%=      5-min Rain = 0
KVA1 191615Z 06002KT 08/M05 A3042 RMK A01 T00771051  RH  040%=      5-min Rain = 0
KVA1 191616Z 06001KT 08/M05 A3042 RMK A01 T00791051  RH  039%=      5-min Rain = 0
KVA1 191617Z 05003KT 08/M05 A3042 RMK A01 T00791051  RH  039%=      5-min Rain = 0
KVA1 191618Z 05002KT 08/M05 A3042 RMK A01 T00781052  RH  039%=      5-min Rain = 0
KVA1 191619Z 06001KT 08/M05 A3042 RMK A01 T00771052  RH  039%=      5-min Rain = 0
KVA1 191620Z 09001KT 08/M05 A3042 RMK A01 T00771053  RH  039%=      5-min Rain = 0
KVA1 191621Z 07002KT 08/M05 A3042 RMK A01 T00781052  RH  039%=      5-min Rain = 0
KVA1 191622Z 06002KT 08/M05 A3042 RMK A01 T00801051  RH  039%=      5-min Rain = 0
KVA1 191623Z 04002KT 08/M05 A3042 RMK A01 T00801052  RH  039%=      5-min Rain = 0
KVA1 191624Z 05001KT 08/M05 A3042 RMK A01 T00791052  RH  039%=      5-min Rain = 0
KVA1 191625Z 09003KT 08/M05 A3042 RMK A01 T00791052  RH  039%=      5-min Rain = 0
KVA1 191626Z 07002KT 08/M05 A3042 RMK A01 T00791052  RH  039%=      5-min Rain = 0
KVA1 191627Z 07001KT 08/M06 A3042 RMK A01 T00801055  RH  038%=      5-min Rain = 0
KVA1 191628Z 04002KT 08/M05 A3042 RMK A01 T00811054  RH  038%=      5-min Rain = 0
KVA1 191629Z 05003KT 08/M05 A3042 RMK A01 T00811054  RH  038%=      5-min Rain = 0
KVA1 191630Z 05003KT 08/M05 A3042 RMK A01 T00801053  RH  039%=      5-min Rain = 0
KVA1 191631Z 05002KT 08/M05 A3042 RMK A01 T00801053  RH  038%=      5-min Rain = 0
KVA1 191632Z 06001KT 08/M05 A3042 RMK A01 T00801053  RH  038%=      5-min Rain = 0
KVA1 191633Z 02001KT 08/M05 A3042 RMK A01 T00801052  RH  039%=      5-min Rain = 0
KVA1 191634Z 03001KT 08/M05 A3042 RMK A01 T00821053  RH  038%=      5-min Rain = 0
KVA1 191635Z 04003KT 08/M05 A3042 RMK A01 T00821053  RH  038%=      5-min Rain = 0
KVA1 191636Z 03003KT 08/M05 A3042 RMK A01 T00821053  RH  038%=      5-min Rain = 0
KVA1 191637Z 01002KT 08/M05 A3042 RMK A01 T00811052  RH  038%=      5-min Rain = 0
KVA1 191638Z 00002KT 08/M05 A3042 RMK A01 T00821052  RH  038%=      5-min Rain = 0
KVA1 191639Z 35001KT 08/M05 A3042 RMK A01 T00821053  RH  038%=      5-min Rain = 0
KVA1 191640Z 31000KT 08/M05 A3042 RMK A01 T00821053  RH  038%=      5-min Rain = 0
KVA1 191641Z 28000KT 08/M05 A3042 RMK A01 T00821053  RH  038%=      5-min Rain = 0
KVA1 191642Z 26000KT 08/M05 A3042 RMK A01 T00841051  RH  038%=      5-min Rain = 0
KVA1 191643Z 03001KT 09/M05 A3042 RMK A01 T00851052  RH  037%=      5-min Rain = 0
KVA1 191644Z 01002KT 09/M05 A3042 RMK A01 T00871050  RH  037%=      5-min Rain = 0
KVA1 191645Z 03001KT 09/M05 A3042 RMK A01 T00881051  RH  037%=      5-min Rain = 0
KVA1 191646Z 06001KT 09/M05 A3042 RMK A01 T00881051  RH  037%=      5-min Rain = 0
KVA1 191647Z 12002KT 09/M05 A3042 RMK A01 T00881052  RH  037%=      5-min Rain = 0
KVA1 191648Z 13003KT 09/M05 A3042 RMK A01 T00881053  RH  036%=      5-min Rain = 0
KVA1 191649Z 14002KT 09/M05 A3042 RMK A01 T00871054  RH  036%=      5-min Rain = 0
KVA1 191650Z 15001KT 09/M05 A3042 RMK A01 T00881054  RH  036%=      5-min Rain = 0
KVA1 191651Z 11001KT 09/M05 A3042 RMK A01 T00881054  RH  036%=      5-min Rain = 0
KVA1 191652Z 12002KT 09/M05 A3042 RMK A01 T00901053  RH  036%=      5-min Rain = 0
KVA1 191653Z 14001KT 09/M05 A3042 RMK A01 T00891054  RH  036%=      5-min Rain = 0
KVA1 191654Z 15001KT 09/M05 A3042 RMK A01 T00891051  RH  037%=      5-min Rain = 0
KVA1 191655Z 10003KT 09/M05 A3042 RMK A01 T00921049  RH  036%=      5-min Rain = 0
KVA1 191656Z 12003KT 09/M05 A3042 RMK A01 T00941053  RH  035%=      5-min Rain = 0
KVA1 191657Z 11002KT 09/M06 A3042 RMK A01 T00931056  RH  034%=      5-min Rain = 0
KVA1 191658Z 14001KT 09/M06 A3042 RMK A01 T00901057  RH  035%=      5-min Rain = 0
KVA1 191659Z 06001KT 09/M06 A3042 RMK A01 T00901055  RH  035%=      5-min Rain = 0
KVA1 191700Z 05002KT 09/M05 A3042 RMK A01 T00911053  RH  036%=      5-min Rain = 0
KVA1 191701Z 06003KT 09/M05 A3042 RMK A01 T00911052  RH  036%=      5-min Rain = 0
KVA1 191702Z 08004KT 09/M05 A3042 RMK A01 T00911054  RH  035%=      5-min Rain = 0
KVA1 191703Z 05003KT 09/M06 A3042 RMK A01 T00881056  RH  035%=      5-min Rain = 0
KVA1 191704Z 02001KT 09/M06 A3042 RMK A01 T00871055  RH  036%=      5-min Rain = 0
KVA1 191705Z 22000KT 09/M06 A3042 RMK A01 T00861055  RH  036%=      5-min Rain = 0
KVA1 191706Z 15003KT 09/M05 A3042 RMK A01 T00881053  RH  036%=      5-min Rain = 0
KVA1 191707Z 17005KT 09/M06 A3042 RMK A01 T00901055  RH  035%=      5-min Rain = 0
KVA1 191708Z 19003KT 09/M06 A3042 RMK A01 T00901056  RH  035%=      5-min Rain = 0
KVA1 191709Z 19003KT 09/M06 A3042 RMK A01 T00881057  RH  035%=      5-min Rain = 0
KVA1 191710Z 15004KT 09/M06 A3042 RMK A01 T00881055  RH  036%=      5-min Rain = 0
KVA1 191711Z 19001KT 09/M06 A3042 RMK A01 T00891056  RH  035%=      5-min Rain = 0
KVA1 191712Z 16001KT 09/M06 A3042 RMK A01 T00871059  RH  035%=      5-min Rain = 0
KVA1 191713Z 15002KT 09/M06 A3042 RMK A01 T00871058  RH  035%=      5-min Rain = 0
KVA1 191714Z 14002KT 09/M06 A3042 RMK A01 T00881056  RH  036%=      5-min Rain = 0
KVA1 191715Z 12001KT 09/M06 A3042 RMK A01 T00901055  RH  035%=      5-min Rain = 0
KVA1 191716Z 04000KT 09/M06 A3042 RMK A01 T00911056  RH  035%=      5-min Rain = 0
KVA1 191717Z 01001KT 09/M06 A3042 RMK A01 T00901056  RH  035%=      5-min Rain = 0
KVA1 191718Z 02001KT 09/M06 A3042 RMK A01 T00901056  RH  035%=      5-min Rain = 0
KVA1 191719Z 02001KT 09/M06 A3042 RMK A01 T00901056  RH  035%=      5-min Rain = 0
KVA1 191720Z 15001KT 09/M06 A3042 RMK A01 T00911056  RH  035%=      5-min Rain = 0
KVA1 191721Z 14004KT 09/M06 A3042 RMK A01 T00921055  RH  035%=      5-min Rain = 0
KVA1 191722Z 15004KT 09/M05 A3042 RMK A01 T00941053  RH  035%=      5-min Rain = 0
KVA1 191723Z 15005KT 10/M05 A3042 RMK A01 T00951054  RH  034%=      5-min Rain = 0
KVA1 191724Z 15003KT 09/M06 A3042 RMK A01 T00931057  RH  034%=      5-min Rain = 0
KVA1 191725Z 17002KT 09/M06 A3042 RMK A01 T00911057  RH  035%=      5-min Rain = 0
KVA1 191726Z 16001KT 09/M06 A3042 RMK A01 T00901057  RH  035%=      5-min Rain = 0
KVA1 191727Z 16003KT 09/M06 A3041 RMK A01 T00901056  RH  035%=      5-min Rain = 0
KVA1 191728Z 12004KT 09/M05 A3041 RMK A01 T00921054  RH  035%=      5-min Rain = 0
KVA1 191729Z 13003KT 09/M05 A3041 RMK A01 T00941054  RH  035%=      5-min Rain = 0
KVA1 191730Z 18004KT 10/M05 A3042 RMK A01 T00961054  RH  034%=      5-min Rain = 0
KVA1 191731Z 16004KT 10/M05 A3042 RMK A01 T00961054  RH  034%=      5-min Rain = 0
KVA1 191732Z 14004KT 10/M05 A3042 RMK A01 T00981054  RH  034%=      5-min Rain = 0
KVA1 191733Z 13004KT 10/M06 A3042 RMK A01 T00981055  RH  034%=      5-min Rain = 0
KVA1 191734Z 12001KT 10/M06 A3042 RMK A01 T00971055  RH  034%=      5-min Rain = 0
KVA1 191735Z 16000KT 10/M06 A3042 RMK A01 T00961057  RH  033%=      5-min Rain = 0
KVA1 191736Z 13000KT 10/M06 A3042 RMK A01 T00981055  RH  033%=      5-min Rain = 0
KVA1 191737Z 17004KT 10/M05 A3042 RMK A01 T00991054  RH  033%=      5-min Rain = 0
KVA1 191738Z 20005KT 10/M06 A3042 RMK A01 T00991055  RH  033%=      5-min Rain = 0
KVA1 191739Z 16004KT 10/M06 A3041 RMK A01 T00981056  RH  033%=      5-min Rain = 0
KVA1 191740Z 15005KT 10/M06 A3041 RMK A01 T00971055  RH  034%=      5-min Rain = 0
KVA1 191741Z 14005KT 10/M06 A3041 RMK A01 T00981056  RH  033%=      5-min Rain = 0
KVA1 191742Z 13003KT 10/M06 A3041 RMK A01 T00981056  RH  033%=      5-min Rain = 0
KVA1 191743Z 17002KT 10/M06 A3041 RMK A01 T00981055  RH  034%=      5-min Rain = 0
KVA1 191744Z 19001KT 10/M06 A3041 RMK A01 T00991055  RH  033%=      5-min Rain = 0
KVA1 191745Z 20001KT 10/M06 A3041 RMK A01 T01001056  RH  033%=      5-min Rain = 0
KVA1 191746Z 21003KT 10/M06 A3042 RMK A01 T01011056  RH  033%=      5-min Rain = 0
KVA1 191747Z 26001KT 10/M06 A3042 RMK A01 T01001058  RH  032%=      5-min Rain = 0
KVA1 191748Z 26000KT 10/M06 A3042 RMK A01 T00991059  RH  032%=      5-min Rain = 0
KVA1 191749Z 10001KT 10/M06 A3042 RMK A01 T01001058  RH  032%=      5-min Rain = 0
KVA1 191750Z 08003KT 10/M06 A3042 RMK A01 T01011058  RH  032%=      5-min Rain = 0
KVA1 191751Z 06003KT 10/M06 A3042 RMK A01 T01011056  RH  033%=      5-min Rain = 0
KVA1 191752Z 05004KT 10/M06 A3042 RMK A01 T01011057  RH  032%=      5-min Rain = 0
KVA1 191753Z 05004KT 10/M06 A3042 RMK A01 T00991059  RH  032%=      5-min Rain = 0
KVA1 191754Z 05003KT 10/M06 A3042 RMK A01 T00971059  RH  033%=      5-min Rain = 0
KVA1 191755Z 04003KT 10/M06 A3042 RMK A01 T00961059  RH  033%=      5-min Rain = 0
KVA1 191756Z 03002KT 10/M06 A3041 RMK A01 T00951058  RH  033%=      5-min Rain = 0
KVA1 191757Z 33002KT 10/M06 A3041 RMK A01 T00961056  RH  034%=      5-min Rain = 0
KVA1 191758Z 31002KT 10/M06 A3041 RMK A01 T00981055  RH  033%=      5-min Rain = 0
KVA1 191759Z 29002KT 10/M06 A3041 RMK A01 T00981057  RH  033%=      5-min Rain = 0
KVA1 191800Z 31000KT 10/M06 A3041 RMK A01 T00971057  RH  033%=      5-min Rain = 0
KVA1 191801Z 17000KT 10/M06 A3041 RMK A01 T00991058  RH  033%=      5-min Rain = 0
KVA1 191802Z 16002KT 10/M06 A3041 RMK A01 T01011055  RH  033%=      5-min Rain = 0
KVA1 191803Z 13002KT 11/M05 A3041 RMK A01 T01051054  RH  032%=      5-min Rain = 0
KVA1 191804Z 13003KT 11/M05 A3041 RMK A01 T01081053  RH  032%=      5-min Rain = 0
KVA1 191805Z 13003KT 11/M05 A3041 RMK A01 T01091054  RH  031%=      5-min Rain = 0
KVA1 191806Z 13003KT 11/M06 A3041 RMK A01 T01091055  RH  031%=      5-min Rain = 0
KVA1 191807Z 13003KT 11/M06 A3041 RMK A01 T01081056  RH  031%=      5-min Rain = 0
KVA1 191808Z 12002KT 11/M06 A3041 RMK A01 T01061055  RH  032%=      5-min Rain = 0
KVA1 191809Z 19004KT 11/M05 A3041 RMK A01 T01071053  RH  032%=      5-min Rain = 0
KVA1 191810Z 20004KT 11/M05 A3041 RMK A01 T01071053  RH  032%=      5-min Rain = 0
KVA1 191811Z 19005KT 11/M06 A3041 RMK A01 T01051055  RH  032%=      5-min Rain = 0
KVA1 191812Z 17006KT 10/M06 A3041 RMK A01 T01021057  RH  032%=      5-min Rain = 0
KVA1 191813Z 21002KT 10/M06 A3041 RMK A01 T01011056  RH  033%=      5-min Rain = 0
KVA1 191814Z 24001KT 10/M06 A3041 RMK A01 T01011055  RH  033%=      5-min Rain = 0
KVA1 191815Z 28002KT 10/M06 A3041 RMK A01 T01001056  RH  033%=      5-min Rain = 0
KVA1 191816Z 29003KT 10/M06 A3041 RMK A01 T01001056  RH  033%=      5-min Rain = 0
KVA1 191817Z 27002KT 10/M06 A3041 RMK A01 T01001056  RH  033%=      5-min Rain = 0
KVA1 191818Z 29001KT 10/M06 A3041 RMK A01 T00991056  RH  033%=      5-min Rain = 0
KVA1 191819Z 22001KT 10/M06 A3041 RMK A01 T01001056  RH  033%=      5-min Rain = 0
KVA1 191820Z 26002KT 10/M05 A3041 RMK A01 T01021054  RH  033%=      5-min Rain = 0
KVA1 191821Z 26001KT 11/M05 A3041 RMK A01 T01051051  RH  033%=      5-min Rain = 0
KVA1 191822Z 16000KT 11/M05 A3041 RMK A01 T01081052  RH  032%=      5-min Rain = 0
KVA1 191823Z 21002KT 11/M05 A3041 RMK A01 T01091053  RH  032%=      5-min Rain = 0
KVA1 191824Z 17004KT 11/M05 A3041 RMK A01 T01101053  RH  031%=      5-min Rain = 0
KVA1 191825Z 19004KT 11/M05 A3041 RMK A01 T01091054  RH  031%=      5-min Rain = 0
KVA1 191826Z 18005KT 11/M05 A3041 RMK A01 T01081054  RH  032%=      5-min Rain = 0
KVA1 191827Z 17005KT 11/M05 A3041 RMK A01 T01071054  RH  032%=      5-min Rain = 0
KVA1 191828Z 19004KT 11/M06 A304 RMK A01 T01081055  RH  031%=      5-min Rain = 0
KVA1 191829Z 19004KT 11/M06 A304 RMK A01 T01081055  RH  031%=      5-min Rain = 0
KVA1 191830Z 16005G13KT 11/M05 A304 RMK A01 T01091053  RH  032%=      5-min Rain = 0
KVA1 191831Z 21005KT 11/M05 A304 RMK A01 T01111052  RH  031%=      5-min Rain = 0
KVA1 191832Z 19005KT 11/M05 A304 RMK A01 T01121053  RH  031%=      5-min Rain = 0
KVA1 191833Z 18006KT 11/M05 A304 RMK A01 T01121054  RH  031%=      5-min Rain = 0
KVA1 191834Z 16006KT 11/M05 A304 RMK A01 T01111054  RH  031%=      5-min Rain = 0
KVA1 191835Z 17006KT 11/M05 A304 RMK A01 T01111053  RH  031%=      5-min Rain = 0
KVA1 191836Z 16005KT 11/M05 A304 RMK A01 T01111054  RH  031%=      5-min Rain = 0
KVA1 191837Z 14004KT 11/M06 A304 RMK A01 T01101055  RH  031%=      5-min Rain = 0
KVA1 191838Z 14003KT 11/M05 A304 RMK A01 T01091054  RH  031%=      5-min Rain = 0
KVA1 191839Z 12002KT 11/M05 A304 RMK A01 T01091054  RH  031%=      5-min Rain = 0
KVA1 191840Z 12002KT 11/M05 A3039 RMK A01 T01091054  RH  032%=      5-min Rain = 0
KVA1 191841Z 12001KT 11/M06 A3039 RMK A01 T01091055  RH  031%=      5-min Rain = 0
KVA1 191842Z 13002KT 11/M06 A3039 RMK A01 T01091055  RH  031%=      5-min Rain = 0
KVA1 191843Z 18004KT 11/M05 A3039 RMK A01 T01101052  RH  032%=      5-min Rain = 0
KVA1 191844Z 19003KT 11/M05 A3039 RMK A01 T01131052  RH  031%=      5-min Rain = 0
KVA1 191845Z 17002KT 12/M05 A3039 RMK A01 T01151052  RH  031%=      5-min Rain = 0
KVA1 191846Z 18005KT 12/M05 A3039 RMK A01 T01161054  RH  030%=      5-min Rain = 0
KVA1 191847Z 18009KT 12/M05 A3039 RMK A01 T01151052  RH  031%=      5-min Rain = 0
KVA1 191848Z 18008KT 11/M05 A3039 RMK A01 T01131051  RH  031%=      5-min Rain = 0
KVA1 191849Z 17005KT 11/M05 A3039 RMK A01 T01131051  RH  031%=      5-min Rain = 0
KVA1 191850Z 18005KT 11/M05 A3039 RMK A01 T01121051  RH  031%=      5-min Rain = 0
KVA1 191851Z 20006KT 11/M05 A3039 RMK A01 T01141051  RH  031%=      5-min Rain = 0
KVA1 191852Z 19005KT 12/M05 A3039 RMK A01 T01151051  RH  031%=      5-min Rain = 0
KVA1 191853Z 20006KT 12/M05 A3039 RMK A01 T01151051  RH  031%=      5-min Rain = 0
KVA1 191854Z 22005KT 12/M05 A3039 RMK A01 T01151052  RH  031%=      5-min Rain = 0
KVA1 191855Z 20004KT 11/M06 A3039 RMK A01 T01131055  RH  030%=      5-min Rain = 0
KVA1 191856Z 20002KT 11/M05 A3039 RMK A01 T01131053  RH  031%=      5-min Rain = 0
KVA1 191857Z 24004KT 11/M06 A3039 RMK A01 T01131055  RH  030%=      5-min Rain = 0
KVA1 191858Z 26002KT 11/M06 A3039 RMK A01 T01111058  RH  030%=      5-min Rain = 0
KVA1 191859Z 31001KT 11/M06 A3039 RMK A01 T01091059  RH  030%=      5-min Rain = 0
KVA1 191900Z 32002KT 11/M06 A3039 RMK A01 T01091057  RH  031%=      5-min Rain = 0
KVA1 191901Z 34002KT 11/M06 A3038 RMK A01 T01101057  RH  031%=      5-min Rain = 0
KVA1 191902Z 33003KT 11/M06 A3038 RMK A01 T01101057  RH  031%=      5-min Rain = 0
KVA1 191903Z 32004KT 11/M06 A3038 RMK A01 T01091056  RH  031%=      5-min Rain = 0
KVA1 191904Z 34001KT 11/M05 A3038 RMK A01 T01091054  RH  031%=      5-min Rain = 0
KVA1 191905Z 04001KT 11/M05 A3038 RMK A01 T01091054  RH  032%=      5-min Rain = 0
KVA1 191906Z 10001KT 11/M05 A3038 RMK A01 T01091053  RH  032%=      5-min Rain = 0
KVA1 191907Z 14002KT 11/M05 A3038 RMK A01 T01111049  RH  032%=      5-min Rain = 0
KVA1 191908Z 21001KT 11/M05 A3038 RMK A01 T01141050  RH  031%=      5-min Rain = 0
KVA1 191909Z 20004KT 12/M05 A3038 RMK A01 T01151052  RH  031%=      5-min Rain = 0
KVA1 191910Z 21006KT 12/M05 A3038 RMK A01 T01151054  RH  030%=      5-min Rain = 0
KVA1 191911Z 22006KT 12/M05 A3038 RMK A01 T01161054  RH  030%=      5-min Rain = 0
KVA1 191912Z 22009KT 12/M05 A3038 RMK A01 T01181054  RH  030%=      5-min Rain = 0
KVA1 191913Z 22008KT 12/M06 A3038 RMK A01 T01171056  RH  029%=      5-min Rain = 0
KVA1 191914Z 21006KT 12/M06 A3038 RMK A01 T01161056  RH  030%=      5-min Rain = 0
KVA1 191915Z 21004KT 12/M05 A3038 RMK A01 T01171054  RH  030%=      5-min Rain = 0
KVA1 191916Z 22005KT 12/M05 A3038 RMK A01 T01181054  RH  030%=      5-min Rain = 0
KVA1 191917Z 23002KT 12/M06 A3038 RMK A01 T01181057  RH  029%=      5-min Rain = 0
KVA1 191918Z 35000KT 12/M06 A3038 RMK A01 T01151060  RH  029%=      5-min Rain = 0
KVA1 191919Z 02001KT 11/M06 A3037 RMK A01 T01131060  RH  029%=      5-min Rain = 0
KVA1 191920Z 24001KT 11/M06 A3037 RMK A01 T01141057  RH  030%=      5-min Rain = 0
KVA1 191921Z 23003KT 12/M06 A3037 RMK A01 T01151056  RH  030%=      5-min Rain = 0
KVA1 191922Z 26003KT 12/M06 A3037 RMK A01 T01161057  RH  029%=      5-min Rain = 0
KVA1 191923Z 24001KT 12/M06 A3037 RMK A01 T01161056  RH  030%=      5-min Rain = 0
KVA1 191924Z 19004G9KT 12/M06 A3037 RMK A01 T01181055  RH  029%=      5-min Rain = 0
KVA1 191925Z 19009KT 12/M05 A3037 RMK A01 T01191054  RH  029%=      5-min Rain = 0
KVA1 191926Z 19006KT 12/M06 A3037 RMK A01 T01191055  RH  029%=      5-min Rain = 0
KVA1 191927Z 16002KT 12/M06 A3037 RMK A01 T01171057  RH  029%=      5-min Rain = 0
KVA1 191928Z 18004KT 12/M06 A3037 RMK A01 T01161055  RH  030%=      5-min Rain = 0
KVA1 191929Z 19005KT 12/M05 A3036 RMK A01 T01181054  RH  029%=      5-min Rain = 0
KVA1 191930Z 17004KT 12/M06 A3036 RMK A01 T01181057  RH  029%=      5-min Rain = 0
KVA1 191931Z 15004KT 12/M06 A3036 RMK A01 T01181055  RH  029%=      5-min Rain = 0
KVA1 191932Z 16004KT 12/M06 A3036 RMK A01 T01191055  RH  029%=      5-min Rain = 0
KVA1 191933Z 16003KT 12/M05 A3036 RMK A01 T01201054  RH  029%=      5-min Rain = 0
KVA1 191934Z 18006KT 12/M05 A3036 RMK A01 T01231052  RH  029%=      5-min Rain = 0
KVA1 191935Z 18007KT 12/M05 A3036 RMK A01 T01241053  RH  029%=      5-min Rain = 0
KVA1 191936Z 18007KT 13/M05 A3036 RMK A01 T01251053  RH  029%=      5-min Rain = 0
KVA1 191937Z 18004KT 12/M06 A3036 RMK A01 T01231056  RH  028%=      5-min Rain = 0
KVA1 191938Z 17003KT 12/M06 A3036 RMK A01 T01211056  RH  029%=      5-min Rain = 0
KVA1 191939Z 16004KT 12/M06 A3036 RMK A01 T01201055  RH  029%=      5-min Rain = 0
KVA1 191940Z 20003KT 12/M06 A3036 RMK A01 T01211055  RH  029%=      5-min Rain = 0
KVA1 191941Z 20005KT 12/M06 A3036 RMK A01 T01221057  RH  028%=      5-min Rain = 0
KVA1 191942Z 19006KT 12/M06 A3035 RMK A01 T01221057  RH  028%=      5-min Rain = 0
KVA1 191943Z 19007KT 12/M06 A3035 RMK A01 T01241057  RH  028%=      5-min Rain = 0
KVA1 191944Z 18009KT 12/M06 A3035 RMK A01 T01241056  RH  028%=      5-min Rain = 0
KVA1 191945Z 18008KT 13/M06 A3035 RMK A01 T01251056  RH  028%=      5-min Rain = 0
KVA1 191946Z 20006KT 13/M06 A3035 RMK A01 T01261057  RH  028%=      5-min Rain = 0
KVA1 191947Z 20006KT 13/M06 A3035 RMK A01 T01271057  RH  027%=      5-min Rain = 0
KVA1 191948Z 21005KT 12/M06 A3035 RMK A01 T01241061  RH  027%=      5-min Rain = 0
KVA1 191949Z 23004KT 12/M06 A3035 RMK A01 T01221062  RH  027%=      5-min Rain = 0
KVA1 191950Z 21005KT 12/M06 A3035 RMK A01 T01201062  RH  028%=      5-min Rain = 0
KVA1 191951Z 19004KT 12/M06 A3035 RMK A01 T01211058  RH  028%=      5-min Rain = 0
KVA1 191952Z 20003KT 12/M06 A3035 RMK A01 T01211058  RH  028%=      5-min Rain = 0
KVA1 191953Z 17000KT 12/M06 A3035 RMK A01 T01211059  RH  028%=      5-min Rain = 0
KVA1 191954Z 26000KT 12/M06 A3034 RMK A01 T01221060  RH  028%=      5-min Rain = 0
KVA1 191955Z 24002KT 12/M06 A3034 RMK A01 T01211059  RH  028%=      5-min Rain = 0
KVA1 191956Z 24005KT 12/M06 A3034 RMK A01 T01231056  RH  028%=      5-min Rain = 0
KVA1 191957Z 23009KT 13/M06 A3034 RMK A01 T01251059  RH  027%=      5-min Rain = 0
KVA1 191958Z 22007KT 13/M06 A3034 RMK A01 T01271060  RH  027%=      5-min Rain = 0
KVA1 191959Z 23009KT 13/M06 A3034 RMK A01 T01271062  RH  026%=      5-min Rain = 0
KVA1 192000Z 25006KT 13/M06 A3034 RMK A01 T01251064  RH  026%=      5-min Rain = 0
KVA1 192001Z 23004KT 13/M07 A3034 RMK A01 T01251065  RH  026%=      5-min Rain = 0
KVA1 192002Z 19008KT 13/M06 A3034 RMK A01 T01251062  RH  026%=      5-min Rain = 0
KVA1 192003Z 19007KT 13/M06 A3034 RMK A01 T01251064  RH  026%=      5-min Rain = 0
KVA1 192004Z 23006KT 12/M07 A3034 RMK A01 T01231066  RH  026%=      5-min Rain = 0
KVA1 192005Z 27004KT 12/M07 A3034 RMK A01 T01231065  RH  026%=      5-min Rain = 0
KVA1 192006Z 26002KT 12/M07 A3033 RMK A01 T01221066  RH  026%=      5-min Rain = 0
KVA1 192007Z 25004KT 12/M07 A3033 RMK A01 T01211065  RH  027%=      5-min Rain = 0
KVA1 192008Z 27005KT 12/M06 A3033 RMK A01 T01231063  RH  027%=      5-min Rain = 0
KVA1 192009Z 22007KT 12/M06 A3033 RMK A01 T01241063  RH  027%=      5-min Rain = 0
KVA1 192010Z 22006KT 13/M06 A3033 RMK A01 T01281060  RH  026%=      5-min Rain = 0
KVA1 192011Z 20006KT 13/M06 A3033 RMK A01 T01291062  RH  026%=      5-min Rain = 0
KVA1 192012Z 22007KT 13/M06 A3033 RMK A01 T01311060  RH  026%=      5-min Rain = 0
KVA1 192013Z 22007KT 13/M06 A3033 RMK A01 T01311063  RH  025%=      5-min Rain = 0
KVA1 192014Z 22009KT 13/M07 A3033 RMK A01 T01291065  RH  025%=      5-min Rain = 0
KVA1 192015Z 20008KT 13/M06 A3033 RMK A01 T01271063  RH  026%=      5-min Rain = 0
KVA1 192016Z 22010KT 13/M06 A3033 RMK A01 T01291062  RH  026%=      5-min Rain = 0
KVA1 192017Z 23007KT 13/M06 A3033 RMK A01 T01281064  RH  026%=      5-min Rain = 0
KVA1 192018Z 24003KT 13/M07 A3033 RMK A01 T01251065  RH  026%=      5-min Rain = 0
KVA1 192019Z 28003KT 13/M06 A3033 RMK A01 T01251064  RH  026%=      5-min Rain = 0
KVA1 192020Z 32002KT 13/M06 A3033 RMK A01 T01251064  RH  026%=      5-min Rain = 0
KVA1 192021Z 29002KT 13/M06 A3033 RMK A01 T01251063  RH  026%=      5-min Rain = 0
KVA1 192022Z 24003KT 13/M06 A3032 RMK A01 T01271060  RH  027%=      5-min Rain = 0
KVA1 192023Z 19007KT 13/M06 A3032 RMK A01 T01281062  RH  026%=      5-min Rain = 0
KVA1 192024Z 18005KT 13/M06 A3032 RMK A01 T01291061  RH  026%=      5-min Rain = 0
KVA1 192025Z 18004KT 13/M06 A3032 RMK A01 T01301062  RH  026%=      5-min Rain = 0
KVA1 192026Z 21003KT 13/M06 A3032 RMK A01 T01301061  RH  026%=      5-min Rain = 0
KVA1 192027Z 24004KT 13/M06 A3032 RMK A01 T01321061  RH  026%=      5-min Rain = 0
KVA1 192028Z 27003KT 13/M06 A3032 RMK A01 T01331062  RH  025%=      5-min Rain = 0
KVA1 192029Z 21008KT 13/M06 A3032 RMK A01 T01311064  RH  025%=      5-min Rain = 0
KVA1 192030Z 20004KT 13/M07 A3032 RMK A01 T01311066  RH  025%=      5-min Rain = 0
KVA1 192031Z 21003KT 13/M07 A3032 RMK A01 T01291065  RH  025%=      5-min Rain = 0
KVA1 192032Z 22003G8KT 13/M06 A3032 RMK A01 T01301063  RH  026%=      5-min Rain = 0
KVA1 192033Z 24007KT 13/M06 A3032 RMK A01 T01321061  RH  026%=      5-min Rain = 0
KVA1 192034Z 25004KT 13/M06 A3032 RMK A01 T01341062  RH  025%=      5-min Rain = 0
KVA1 192035Z 25005KT 13/M06 A3032 RMK A01 T01341064  RH  025%=      5-min Rain = 0
KVA1 192036Z 32002KT 13/M07 A3032 RMK A01 T01321067  RH  025%=      5-min Rain = 0
KVA1 192037Z 26002KT 13/M07 A3032 RMK A01 T01301067  RH  025%=      5-min Rain = 0
KVA1 192038Z 26005KT 13/M06 A3031 RMK A01 T01311063  RH  025%=      5-min Rain = 0
KVA1 192039Z 26005KT 13/M07 A3031 RMK A01 T01321065  RH  025%=      5-min Rain = 0
KVA1 192040Z 24005KT 13/M07 A3031 RMK A01 T01331065  RH  025%=      5-min Rain = 0
KVA1 192041Z 21004KT 13/M07 A3031 RMK A01 T01341065  RH  025%=      5-min Rain = 0
KVA1 192042Z 22007KT 14/M06 A3031 RMK A01 T01361064  RH  024%=      5-min Rain = 0
KVA1 192043Z 20008KT 14/M07 A3031 RMK A01 T01371066  RH  024%=      5-min Rain = 0
KVA1 192044Z 19008KT 14/M07 A3031 RMK A01 T01391066  RH  024%=      5-min Rain = 0
KVA1 192045Z 18005KT 14/M07 A3031 RMK A01 T01361070  RH  023%=      5-min Rain = 0
KVA1 192046Z 20004KT 13/M07 A3031 RMK A01 T01341068  RH  024%=      5-min Rain = 0
KVA1 192047Z 21003KT 13/M07 A3031 RMK A01 T01341068  RH  024%=      5-min Rain = 0
KVA1 192048Z 19006KT 14/M07 A3031 RMK A01 T01361067  RH  024%=      5-min Rain = 0
KVA1 192049Z 27008KT 14/M07 A3031 RMK A01 T01371067  RH  024%=      5-min Rain = 0
KVA1 192050Z 26009KT 14/M07 A3031 RMK A01 T01391069  RH  023%=      5-min Rain = 0
KVA1 192051Z 25008KT 14/M07 A3031 RMK A01 T01401069  RH  023%=      5-min Rain = 0
KVA1 192052Z 24008KT 14/M07 A3031 RMK A01 T01401070  RH  023%=      5-min Rain = 0
KVA1 192053Z 26009KT 14/M07 A3031 RMK A01 T01371072  RH  023%=      5-min Rain = 0
KVA1 192054Z 25009KT 14/M07 A3031 RMK A01 T01371070  RH  023%=      5-min Rain = 0
KVA1 192055Z 25007KT 14/M07 A3031 RMK A01 T01371072  RH  023%=      5-min Rain = 0
KVA1 192056Z 26006KT 14/M07 A3031 RMK A01 T01351073  RH  023%=      5-min Rain = 0
KVA1 192057Z 26009KT 14/M07 A3031 RMK A01 T01351070  RH  023%=      5-min Rain = 0
KVA1 192058Z 27007KT 14/M07 A3031 RMK A01 T01371069  RH  023%=      5-min Rain = 0
KVA1 192059Z 29006KT 14/M07 A3031 RMK A01 T01351071  RH  023%=      5-min Rain = 0
KVA1 192100Z 25005KT 13/M07 A3031 RMK A01 T01341071  RH  023%=      5-min Rain = 0
KVA1 192101Z 24005KT 14/M07 A3031 RMK A01 T01361070  RH  023%=      5-min Rain = 0
KVA1 192102Z 24004KT 14/M07 A3031 RMK A01 T01371071  RH  023%=      5-min Rain = 0
KVA1 192103Z 28006KT 14/M07 A3031 RMK A01 T01361072  RH  023%=      5-min Rain = 0
KVA1 192104Z 29007KT 14/M08 A3031 RMK A01 T01361077  RH  022%=      5-min Rain = 0
KVA1 192105Z 26009KT 14/M08 A3031 RMK A01 T01371075  RH  022%=      5-min Rain = 0
KVA1 192106Z 26007KT 14/M08 A3031 RMK A01 T01381075  RH  022%=      5-min Rain = 0
KVA1 192107Z 27006KT 14/M07 A3031 RMK A01 T01391074  RH  022%=      5-min Rain = 0
KVA1 192108Z 25004KT 14/M07 A3031 RMK A01 T01411073  RH  022%=      5-min Rain = 0
KVA1 192109Z 26005KT 14/M07 A3031 RMK A01 T01431073  RH  022%=      5-min Rain = 0
KVA1 192110Z 27008KT 14/M08 A3031 RMK A01 T01441076  RH  021%=      5-min Rain = 0
KVA1 192111Z 28010KT 14/M08 A3031 RMK A01 T01441077  RH  021%=      5-min Rain = 0
KVA1 192112Z 29010KT 14/M08 A3031 RMK A01 T01441080  RH  020%=      5-min Rain = 0
KVA1 192113Z 27009KT 14/M08 A3031 RMK A01 T01421080  RH  021%=      5-min Rain = 0
KVA1 192114Z 28009KT 14/M08 A3031 RMK A01 T01411079  RH  021%=      5-min Rain = 0
KVA1 192115Z 27007KT 14/M08 A3031 RMK A01 T01391080  RH  021%=      5-min Rain = 0
KVA1 192116Z 26008KT 14/M08 A3031 RMK A01 T01391079  RH  021%=      5-min Rain = 0
KVA1 192117Z 28009KT 14/M08 A3031 RMK A01 T01401077  RH  021%=      5-min Rain = 0
KVA1 192118Z 29012KT 14/M08 A3031 RMK A01 T01411076  RH  022%=      5-min Rain = 0
KVA1 192119Z 28010KT 14/M08 A3031 RMK A01 T01411077  RH  021%=      5-min Rain = 0
KVA1 192120Z 27009KT 14/M08 A3031 RMK A01 T01401078  RH  021%=      5-min Rain = 0
KVA1 192121Z 27008KT 14/M08 A3031 RMK A01 T01391079  RH  021%=      5-min Rain = 0
KVA1 192122Z 25005KT 14/M08 A3031 RMK A01 T01371078  RH  022%=      5-min Rain = 0
KVA1 192123Z 29006KT 14/M08 A3031 RMK A01 T01391076  RH  022%=      5-min Rain = 0
KVA1 192124Z 30008KT 14/M08 A3031 RMK A01 T01391078  RH  021%=      5-min Rain = 0
KVA1 192125Z 25004KT 14/M08 A303 RMK A01 T01361080  RH  022%=      5-min Rain = 0
KVA1 192126Z 28004KT 14/M08 A303 RMK A01 T01361078  RH  022%=      5-min Rain = 0
KVA1 192127Z 28007KT 14/M07 A303 RMK A01 T01401074  RH  022%=      5-min Rain = 0
KVA1 192128Z 29006KT 14/M07 A303 RMK A01 T01431073  RH  022%=      5-min Rain = 0
KVA1 192129Z 27006KT 15/M07 A3031 RMK A01 T01451073  RH  021%=      5-min Rain = 0
KVA1 192130Z 25004KT 15/M08 A3031 RMK A01 T01451075  RH  021%=      5-min Rain = 0
KVA1 192131Z 29004KT 14/M08 A3031 RMK A01 T01441077  RH  021%=      5-min Rain = 0
KVA1 192132Z 29004KT 14/M08 A303 RMK A01 T01431076  RH  021%=      5-min Rain = 0
KVA1 192133Z 31003KT 14/M08 A303 RMK A01 T01431077  RH  021%=      5-min Rain = 0
KVA1 192134Z 28003KT 14/M08 A303 RMK A01 T01411079  RH  021%=      5-min Rain = 0
KVA1 192135Z 25003KT 14/M08 A303 RMK A01 T01411076  RH  021%=      5-min Rain = 0
KVA1 192136Z 23005KT 14/M08 A303 RMK A01 T01431076  RH  021%=      5-min Rain = 0
KVA1 192137Z 22006KT 14/M08 A303 RMK A01 T01431077  RH  021%=      5-min Rain = 0
KVA1 192138Z 25006KT 14/M08 A303 RMK A01 T01411078  RH  021%=      5-min Rain = 0
KVA1 192139Z 24005KT 14/M08 A303 RMK A01 T01381079  RH  021%=      5-min Rain = 0
KVA1 192140Z 24004KT 14/M08 A303 RMK A01 T01381077  RH  022%=      5-min Rain = 0
KVA1 192141Z 25005KT 14/M07 A303 RMK A01 T01411073  RH  022%=      5-min Rain = 0
KVA1 192142Z 26008KT 14/M07 A303 RMK A01 T01441074  RH  022%=      5-min Rain = 0
KVA1 192143Z 26006KT 14/M08 A303 RMK A01 T01431075  RH  021%=      5-min Rain = 0
KVA1 192144Z 27009KT 14/M07 A303 RMK A01 T01431074  RH  022%=      5-min Rain = 0
KVA1 192145Z 25008KT 14/M07 A303 RMK A01 T01421073  RH  022%=      5-min Rain = 0
KVA1 192146Z 24008KT 14/M07 A303 RMK A01 T01441071  RH  022%=      5-min Rain = 0
KVA1 192147Z 24007KT 15/M07 A303 RMK A01 T01451073  RH  021%=      5-min Rain = 0
KVA1 192148Z 23006KT 14/M08 A303 RMK A01 T01431075  RH  021%=      5-min Rain = 0
KVA1 192149Z 24006KT 14/M08 A303 RMK A01 T01421075  RH  022%=      5-min Rain = 0
KVA1 192150Z 23005KT 14/M08 A303 RMK A01 T01421075  RH  022%=      5-min Rain = 0
KVA1 192151Z 25008KT 14/M08 A303 RMK A01 T01421076  RH  021%=      5-min Rain = 0
KVA1 192152Z 25008KT 14/M08 A303 RMK A01 T01421078  RH  021%=      5-min Rain = 0
KVA1 192153Z 26006KT 14/M08 A303 RMK A01 T01411079  RH  021%=      5-min Rain = 0
KVA1 192154Z 27004KT 14/M08 A303 RMK A01 T01401081  RH  021%=      5-min Rain = 0
KVA1 192155Z 26008KT 14/M08 A303 RMK A01 T01401081  RH  021%=      5-min Rain = 0
KVA1 192156Z 26007KT 14/M08 A303 RMK A01 T01411082  RH  021%=      5-min Rain = 0
KVA1 192157Z 26007KT 14/M08 A303 RMK A01 T01421082  RH  021%=      5-min Rain = 0
KVA1 192158Z 26009KT 14/M08 A303 RMK A01 T01441081  RH  020%=      5-min Rain = 0
KVA1 192159Z 25006KT 14/M09 A303 RMK A01 T01441085  RH  020%=      5-min Rain = 0
KVA1 192200Z 24006KT 14/M08 A303 RMK A01 T01441084  RH  020%=      5-min Rain = 0
KVA1 192201Z 26006KT 15/M08 A303 RMK A01 T01471083  RH  020%=      5-min Rain = 0
KVA1 192202Z 28008KT 15/M09 A303 RMK A01 T01471085  RH  019%=      5-min Rain = 0
KVA1 192203Z 29005KT 14/M09 A303 RMK A01 T01441089  RH  019%=      5-min Rain = 0
KVA1 192204Z 29005KT 14/M09 A303 RMK A01 T01421089  RH  019%=      5-min Rain = 0
KVA1 192205Z 29006KT 14/M09 A303 RMK A01 T01411089  RH  019%=      5-min Rain = 0
KVA1 192206Z 29007KT 14/M09 A303 RMK A01 T01431087  RH  020%=      5-min Rain = 0
KVA1 192207Z 27005KT 15/M09 A303 RMK A01 T01451086  RH  019%=      5-min Rain = 0
KVA1 192208Z 26007KT 15/M09 A303 RMK A01 T01471088  RH  019%=      5-min Rain = 0
KVA1 192209Z 28008KT 15/M09 A303 RMK A01 T01461091  RH  019%=      5-min Rain = 0
KVA1 192210Z 27007KT 15/M09 A303 RMK A01 T01461093  RH  018%=      5-min Rain = 0
KVA1 192211Z 28007KT 14/M09 A303 RMK A01 T01441094  RH  018%=      5-min Rain = 0
KVA1 192212Z 26005KT 14/M09 A303 RMK A01 T01431093  RH  019%=      5-min Rain = 0
KVA1 192213Z 26006KT 14/M09 A303 RMK A01 T01431091  RH  019%=      5-min Rain = 0
KVA1 192214Z 27007KT 14/M09 A303 RMK A01 T01441089  RH  019%=      5-min Rain = 0
KVA1 192215Z 26007KT 15/M09 A303 RMK A01 T01461089  RH  019%=      5-min Rain = 0
KVA1 192216Z 27008KT 15/M09 A303 RMK A01 T01471089  RH  019%=      5-min Rain = 0
KVA1 192217Z 28008KT 15/M09 A303 RMK A01 T01461091  RH  018%=      5-min Rain = 0
KVA1 192218Z 27006KT 15/M09 A303 RMK A01 T01451092  RH  019%=      5-min Rain = 0
KVA1 192219Z 26005KT 14/M09 A303 RMK A01 T01431093  RH  019%=      5-min Rain = 0
KVA1 192220Z 26006KT 14/M09 A303 RMK A01 T01421093  RH  019%=      5-min Rain = 0
KVA1 192221Z 26005KT 14/M09 A303 RMK A01 T01421088  RH  019%=      5-min Rain = 0
KVA1 192222Z 27008G13KT 14/M09 A3029 RMK A01 T01441086  RH  020%=      5-min Rain = 0
KVA1 192223Z 28011KT 15/M09 A3029 RMK A01 T01451086  RH  019%=      5-min Rain = 0
KVA1 192224Z 28008KT 14/M09 A3029 RMK A01 T01421090  RH  019%=      5-min Rain = 0
KVA1 192225Z 29008KT 14/M09 A3029 RMK A01 T01411088  RH  020%=      5-min Rain = 0
KVA1 192226Z 29006KT 14/M09 A3029 RMK A01 T01411088  RH  020%=      5-min Rain = 0
KVA1 192227Z 29006KT 14/M09 A3029 RMK A01 T01411086  RH  020%=      5-min Rain = 0
KVA1 192228Z 27007KT 14/M08 A3029 RMK A01 T01441084  RH  020%=      5-min Rain = 0
KVA1 192229Z 27008KT 14/M09 A3029 RMK A01 T01441088  RH  019%=      5-min Rain = 0
KVA1 192230Z 28007KT 14/M09 A3029 RMK A01 T01421090  RH  019%=      5-min Rain = 0
KVA1 192231Z 28007KT 14/M09 A3029 RMK A01 T01411091  RH  019%=      5-min Rain = 0
KVA1 192232Z 28008KT 14/M09 A3029 RMK A01 T01401090  RH  019%=      5-min Rain = 0
KVA1 192233Z 27007KT 14/M09 A3029 RMK A01 T01401089  RH  020%=      5-min Rain = 0
KVA1 192234Z 27006KT 14/M09 A3029 RMK A01 T01401088  RH  020%=      5-min Rain = 0
KVA1 192235Z 26005KT 14/M09 A3029 RMK A01 T01411088  RH  020%=      5-min Rain = 0
KVA1 192236Z 26004KT 14/M09 A3029 RMK A01 T01411089  RH  020%=      5-min Rain = 0
KVA1 192237Z 27005KT 14/M09 A3029 RMK A01 T01411089  RH  019%=      5-min Rain = 0
KVA1 192238Z 27006KT 14/M09 A3029 RMK A01 T01411089  RH  019%=      5-min Rain = 0
KVA1 192239Z 26007KT 14/M09 A3029 RMK A01 T01431090  RH  019%=      5-min Rain = 0
KVA1 192240Z 28007KT 14/M09 A3029 RMK A01 T01431090  RH  019%=      5-min Rain = 0
KVA1 192241Z 28006KT 14/M09 A3029 RMK A01 T01431086  RH  020%=      5-min Rain = 0
KVA1 192242Z 29007KT 14/M08 A3029 RMK A01 T01421084  RH  020%=      5-min Rain = 0
KVA1 192243Z 30005KT 14/M09 A3029 RMK A01 T01421085  RH  020%=      5-min Rain = 0
KVA1 192244Z 28006KT 14/M09 A3029 RMK A01 T01431085  RH  020%=      5-min Rain = 0
KVA1 192245Z 24008KT 14/M09 A3029 RMK A01 T01431087  RH  020%=      5-min Rain = 0
KVA1 192246Z 26008KT 14/M09 A3029 RMK A01 T01441086  RH  019%=      5-min Rain = 0
KVA1 192247Z 26010KT 15/M09 A3029 RMK A01 T01451089  RH  019%=      5-min Rain = 0
KVA1 192248Z 25007KT 14/M09 A3029 RMK A01 T01431091  RH  019%=      5-min Rain = 0
KVA1 192249Z 26005KT 14/M09 A3029 RMK A01 T01421091  RH  019%=      5-min Rain = 0
KVA1 192250Z 24005KT 14/M09 A3029 RMK A01 T01421090  RH  019%=      5-min Rain = 0
KVA1 192251Z 23006KT 14/M09 A3029 RMK A01 T01421089  RH  019%=      5-min Rain = 0
KVA1 192252Z 24006KT 14/M09 A3029 RMK A01 T01421090  RH  019%=      5-min Rain = 0
KVA1 192253Z 27006KT 14/M09 A3029 RMK A01 T01421090  RH  019%=      5-min Rain = 0
KVA1 192254Z 26006KT 14/M09 A3029 RMK A01 T01421092  RH  019%=      5-min Rain = 0
KVA1 192255Z 26004KT 14/M09 A3029 RMK A01 T01411093  RH  019%=      5-min Rain = 0
KVA1 192256Z 24006KT 14/M09 A3029 RMK A01 T01411091  RH  019%=      5-min Rain = 0
KVA1 192257Z 25006KT 14/M09 A3029 RMK A01 T01411089  RH  019%=      5-min Rain = 0
KVA1 192258Z 26006KT 14/M09 A3029 RMK A01 T01421088  RH  020%=      5-min Rain = 0
KVA1 192259Z 25004KT 14/M09 A3029 RMK A01 T01421087  RH  020%=      5-min Rain = 0
KVA1 192300Z 28006KT 14/M09 A3029 RMK A01 T01431086  RH  020%=      5-min Rain = 0
KVA1 192301Z 27009KT 15/M09 A3029 RMK A01 T01451085  RH  020%=      5-min Rain = 0
KVA1 192302Z 27009KT 14/M09 A3029 RMK A01 T01441085  RH  020%=      5-min Rain = 0
KVA1 192303Z 27009KT 14/M09 A3029 RMK A01 T01421087  RH  020%=      5-min Rain = 0
KVA1 192304Z 26009KT 14/M09 A3029 RMK A01 T01421085  RH  020%=      5-min Rain = 0
KVA1 192305Z 26011KT 14/M09 A3029 RMK A01 T01431087  RH  020%=      5-min Rain = 0
KVA1 192306Z 27008KT 14/M09 A3029 RMK A01 T01411089  RH  019%=      5-min Rain = 0
KVA1 192307Z 27006KT 14/M09 A3029 RMK A01 T01401089  RH  020%=      5-min Rain = 0
KVA1 192308Z 27004KT 14/M09 A3029 RMK A01 T01401088  RH  020%=      5-min Rain = 0
KVA1 192309Z 29004KT 14/M09 A3029 RMK A01 T01411086  RH  020%=      5-min Rain = 0
KVA1 192310Z 28007KT 14/M09 A3029 RMK A01 T01431085  RH  020%=      5-min Rain = 0
KVA1 192311Z 28008KT 14/M09 A3029 RMK A01 T01431086  RH  020%=      5-min Rain = 0
KVA1 192312Z 28005KT 14/M09 A3029 RMK A01 T01421086  RH  020%=      5-min Rain = 0
KVA1 192313Z 28006KT 14/M09 A3029 RMK A01 T01421085  RH  020%=      5-min Rain = 0
KVA1 192314Z 27008KT 14/M08 A3029 RMK A01 T01431083  RH  020%=      5-min Rain = 0
KVA1 192315Z 27005KT 14/M08 A3029 RMK A01 T01431084  RH  020%=      5-min Rain = 0
KVA1 192316Z 27006KT 14/M08 A3029 RMK A01 T01431084  RH  020%=      5-min Rain = 0
KVA1 192317Z 27005KT 14/M09 A3029 RMK A01 T01431085  RH  020%=      5-min Rain = 0
KVA1 192318Z 27006KT 14/M09 A3029 RMK A01 T01421085  RH  020%=      5-min Rain = 0
KVA1 192319Z 27007KT 14/M09 A3029 RMK A01 T01411085  RH  020%=      5-min Rain = 0
KVA1 192320Z 27004KT 14/M08 A3029 RMK A01 T01411084  RH  020%=      5-min Rain = 0
KVA1 192321Z 27007KT 14/M08 A3029 RMK A01 T01421084  RH  020%=      5-min Rain = 0
KVA1 192322Z 27007KT 14/M09 A3029 RMK A01 T01421085  RH  020%=      5-min Rain = 0
KVA1 192323Z 27007KT 14/M08 A3029 RMK A01 T01421084  RH  020%=      5-min Rain = 0
KVA1 192324Z 27007KT 14/M09 A3029 RMK A01 T01411085  RH  020%=      5-min Rain = 0
KVA1 192325Z 26006KT 14/M09 A3029 RMK A01 T01411085  RH  020%=      5-min Rain = 0
KVA1 192326Z 26007KT 14/M08 A3029 RMK A01 T01421084  RH  020%=      5-min Rain = 0
KVA1 192327Z 26007KT 14/M09 A3029 RMK A01 T01421085  RH  020%=      5-min Rain = 0
KVA1 192328Z 27007KT 14/M09 A3029 RMK A01 T01421085  RH  020%=      5-min Rain = 0
KVA1 192329Z 27006KT 14/M09 A3029 RMK A01 T01421085  RH  020%=      5-min Rain = 0
KVA1 192330Z 26005KT 14/M09 A3029 RMK A01 T01411086  RH  020%=      5-min Rain = 0
KVA1 192331Z 25005KT 14/M09 A3029 RMK A01 T01421087  RH  020%=      5-min Rain = 0
KVA1 192332Z 26004KT 14/M09 A3029 RMK A01 T01421088  RH  019%=      5-min Rain = 0
KVA1 192333Z 25005KT 14/M09 A3029 RMK A01 T01431089  RH  019%=      5-min Rain = 0
KVA1 192334Z 25005KT 14/M09 A3029 RMK A01 T01431090  RH  019%=      5-min Rain = 0
KVA1 192335Z 25004KT 14/M09 A3029 RMK A01 T01431089  RH  019%=      5-min Rain = 0
KVA1 192336Z 25005KT 14/M09 A3029 RMK A01 T01431088  RH  019%=      5-min Rain = 0
KVA1 192337Z 25006KT 14/M09 A3029 RMK A01 T01431087  RH  020%=      5-min Rain = 0
KVA1 192338Z 25005KT 14/M09 A3029 RMK A01 T01421087  RH  020%=      5-min Rain = 0
KVA1 192339Z 25005KT 14/M09 A3029 RMK A01 T01421086  RH  020%=      5-min Rain = 0
KVA1 192340Z 27005KT 14/M09 A3029 RMK A01 T01411085  RH  020%=      5-min Rain = 0
KVA1 192341Z 26005KT 14/M08 A3029 RMK A01 T01421084  RH  020%=      5-min Rain = 0
KVA1 192342Z 25007KT 14/M09 A3029 RMK A01 T01421085  RH  020%=      5-min Rain = 0
KVA1 192343Z 26006KT 14/M09 A3029 RMK A01 T01411086  RH  020%=      5-min Rain = 0
KVA1 192344Z 26006KT 14/M09 A3029 RMK A01 T01401085  RH  020%=      5-min Rain = 0
KVA1 192345Z 25006KT 14/M08 A3029 RMK A01 T01401084  RH  020%=      5-min Rain = 0
KVA1 192346Z 24008KT 14/M08 A3028 RMK A01 T01391083  RH  021%=      5-min Rain = 0
KVA1 192347Z 24007KT 14/M08 A3028 RMK A01 T01391083  RH  021%=      5-min Rain = 0
KVA1 192348Z 25008KT 14/M08 A3028 RMK A01 T01391083  RH  021%=      5-min Rain = 0
KVA1 192349Z 25007KT 14/M08 A3029 RMK A01 T01381084  RH  021%=      5-min Rain = 0
KVA1 192350Z 25006KT 14/M09 A3028 RMK A01 T01381085  RH  020%=      5-min Rain = 0
KVA1 192351Z 24007KT 14/M09 A3028 RMK A01 T01381086  RH  020%=      5-min Rain = 0
KVA1 192352Z 24008KT 14/M09 A3028 RMK A01 T01381087  RH  020%=      5-min Rain = 0
KVA1 192353Z 25008KT 14/M09 A3028 RMK A01 T01371088  RH  020%=      5-min Rain = 0
KVA1 192354Z 25007KT 14/M09 A3028 RMK A01 T01371089  RH  020%=      5-min Rain = 0
KVA1 192355Z 25006KT 14/M09 A3028 RMK A01 T01371090  RH  020%=      5-min Rain = 0
KVA1 192356Z 24006KT 14/M09 A3028 RMK A01 T01361089  RH  020%=      5-min Rain = 0
KVA1 192357Z 25007KT 14/M09 A3028 RMK A01 T01361089  RH  020%=      5-min Rain = 0
KVA1 192358Z 25009KT 14/M09 A3028 RMK A01 T01361089  RH  020%=      5-min Rain = 0
KVA1 192359Z 25008KT 14/M09 A3028 RMK A01 T01351088  RH  020%=      5-min Rain = 0
KVA1 200000Z 25007KT 14/M09 A3028 RMK A01 T01351087  RH  021%=      5-min Rain = 0
KVA1 200001Z 26008KT 14/M09 A3028 RMK A01 T01351086  RH  021%=      5-min Rain = 0
KVA1 200002Z 26007KT 13/M09 A3028 RMK A01 T01341086  RH  021%=      5-min Rain = 0
KVA1 200003Z 27006KT 13/M09 A3028 RMK A01 T01341086  RH  021%=      5-min Rain = 0
KVA1 200004Z 26005KT 13/M09 A3028 RMK A01 T01331086  RH  021%=      5-min Rain = 0
KVA1 200005Z 25004KT 13/M09 A3028 RMK A01 T01331085  RH  021%=      5-min Rain = 0
KVA1 200006Z 25003KT 13/M08 A3028 RMK A01 T01331084  RH  021%=      5-min Rain = 0
KVA1 200007Z 25003KT 13/M08 A3028 RMK A01 T01331083  RH  021%=      5-min Rain = 0
KVA1 200008Z 25004KT 13/M08 A3028 RMK A01 T01321084  RH  021%=      5-min Rain = 0
KVA1 200009Z 25005KT 13/M08 A3028 RMK A01 T01321083  RH  022%=      5-min Rain = 0
KVA1 200010Z 25005KT 13/M08 A3028 RMK A01 T01311084  RH  022%=      5-min Rain = 0
KVA1 200011Z 25006KT 13/M08 A3028 RMK A01 T01311084  RH  022%=      5-min Rain = 0
KVA1 200012Z 25004KT 13/M08 A3028 RMK A01 T01301084  RH  022%=      5-min Rain = 0
KVA1 200013Z 24004KT 13/M08 A3028 RMK A01 T01291084  RH  022%=      5-min Rain = 0
KVA1 200014Z 24005KT 13/M08 A3028 RMK A01 T01281084  RH  022%=      5-min Rain = 0
KVA1 200015Z 23004KT 13/M09 A3028 RMK A01 T01281085  RH  022%=      5-min Rain = 0
KVA1 200016Z 22004KT 13/M08 A3028 RMK A01 T01271084  RH  022%=      5-min Rain = 0
KVA1 200017Z 22004KT 13/M08 A3029 RMK A01 T01261083  RH  023%=      5-min Rain = 0
KVA1 200018Z 22004KT 13/M08 A3029 RMK A01 T01251081  RH  023%=      5-min Rain = 0
KVA1 200019Z 21004KT 12/M08 A3029 RMK A01 T01231081  RH  023%=      5-min Rain = 0
KVA1 200020Z 21004KT 12/M08 A3029 RMK A01 T01221079  RH  024%=      5-min Rain = 0
KVA1 200021Z 21004KT 12/M08 A3029 RMK A01 T01211078  RH  024%=      5-min Rain = 0
KVA1 200022Z 21005KT 12/M08 A3029 RMK A01 T01201077  RH  025%=      5-min Rain = 0
KVA1 200023Z 21005KT 12/M08 A3029 RMK A01 T01191076  RH  025%=      5-min Rain = 0
KVA1 200024Z 21005KT 12/M08 A3029 RMK A01 T01191075  RH  025%=      5-min Rain = 0
KVA1 200025Z 21005KT 12/M07 A3029 RMK A01 T01191074  RH  025%=      5-min Rain = 0
KVA1 200026Z 22004KT 12/M07 A3029 RMK A01 T01191074  RH  025%=      5-min Rain = 0
KVA1 200027Z 22004KT 12/M07 A3029 RMK A01 T01181074  RH  025%=      5-min Rain = 0
KVA1 200028Z 23004KT 12/M07 A3029 RMK A01 T01171074  RH  026%=      5-min Rain = 0
KVA1 200029Z 24003KT 12/M08 A3029 RMK A01 T01151075  RH  026%=      5-min Rain = 0
KVA1 200030Z 24004KT 11/M08 A3029 RMK A01 T01131076  RH  026%=      5-min Rain = 0
KVA1 200031Z 23004KT 11/M08 A3029 RMK A01 T01111076  RH  026%=      5-min Rain = 0
KVA1 200032Z 23004KT 11/M08 A3029 RMK A01 T01091076  RH  027%=      5-min Rain = 0
KVA1 200033Z 22004KT 11/M08 A3029 RMK A01 T01081075  RH  027%=      5-min Rain = 0
KVA1 200034Z 21004KT 11/M07 A3029 RMK A01 T01081074  RH  027%=      5-min Rain = 0
KVA1 200035Z 21005KT 11/M07 A3029 RMK A01 T01081073  RH  027%=      5-min Rain = 0
KVA1 200036Z 21006KT 11/M07 A3029 RMK A01 T01081072  RH  027%=      5-min Rain = 0
KVA1 200037Z 21005KT 11/M07 A3029 RMK A01 T01091072  RH  027%=      5-min Rain = 0
KVA1 200038Z 21005KT 11/M07 A3029 RMK A01 T01081072  RH  027%=      5-min Rain = 0
KVA1 200039Z 21005KT 11/M07 A3029 RMK A01 T01081072  RH  028%=      5-min Rain = 0
KVA1 200040Z 21005KT 11/M07 A3029 RMK A01 T01071072  RH  028%=      5-min Rain = 0
KVA1 200041Z 21005KT 11/M07 A3029 RMK A01 T01061072  RH  028%=      5-min Rain = 0
KVA1 200042Z 21005KT 11/M07 A3029 RMK A01 T01051072  RH  028%=      5-min Rain = 0
KVA1 200043Z 21005KT 11/M07 A3029 RMK A01 T01051072  RH  028%=      5-min Rain = 0
KVA1 200044Z 21005KT 11/M07 A3029 RMK A01 T01051072  RH  028%=      5-min Rain = 0
KVA1 200045Z 21005KT 10/M07 A3029 RMK A01 T01041072  RH  028%=      5-min Rain = 0
KVA1 200046Z 21005KT 10/M07 A3029 RMK A01 T01031072  RH  028%=      5-min Rain = 0
KVA1 200047Z 21005KT 10/M07 A3029 RMK A01 T01031072  RH  028%=      5-min Rain = 0
KVA1 200048Z 21005KT 10/M07 A3029 RMK A01 T01021072  RH  029%=      5-min Rain = 0
KVA1 200049Z 21005KT 10/M07 A3029 RMK A01 T01011073  RH  029%=      5-min Rain = 0
KVA1 200050Z 21005KT 10/M07 A3029 RMK A01 T01011073  RH  029%=      5-min Rain = 0
KVA1 200051Z 21005KT 10/M07 A3029 RMK A01 T01001073  RH  029%=      5-min Rain = 0
KVA1 200052Z 21005KT 10/M07 A3029 RMK A01 T00991073  RH  029%=      5-min Rain = 0
KVA1 200053Z 21005KT 10/M07 A3029 RMK A01 T00981073  RH  029%=      5-min Rain = 0
KVA1 200054Z 21006KT 10/M07 A3029 RMK A01 T00981073  RH  029%=      5-min Rain = 0
KVA1 200055Z 21006KT 10/M07 A3029 RMK A01 T00981073  RH  029%=      5-min Rain = 0
KVA1 200056Z 21006KT 10/M07 A3029 RMK A01 T00971074  RH  029%=      5-min Rain = 0
KVA1 200057Z 21006KT 10/M07 A3029 RMK A01 T00971073  RH  029%=      5-min Rain = 0
KVA1 200058Z 21005KT 10/M07 A3029 RMK A01 T00971073  RH  029%=      5-min Rain = 0
KVA1 200059Z 22005KT 10/M07 A3029 RMK A01 T00961073  RH  030%=      5-min Rain = 0
KVA1 200100Z 22005KT 10/M07 A3029 RMK A01 T00951074  RH  030%=      5-min Rain = 0
KVA1 200101Z 22004KT 09/M07 A3029 RMK A01 T00941074  RH  030%=      5-min Rain = 0
KVA1 200102Z 22005KT 09/M08 A3029 RMK A01 T00911075  RH  030%=      5-min Rain = 0
KVA1 200103Z 22005KT 09/M07 A3029 RMK A01 T00901074  RH  030%=      5-min Rain = 0
KVA1 200104Z 22005KT 09/M07 A3029 RMK A01 T00891074  RH  031%=      5-min Rain = 0
KVA1 200105Z 21005KT 09/M07 A3029 RMK A01 T00891074  RH  031%=      5-min Rain = 0
KVA1 200106Z 21005KT 09/M07 A3029 RMK A01 T00891074  RH  031%=      5-min Rain = 0
KVA1 200107Z 22005KT 09/M07 A3029 RMK A01 T00891073  RH  031%=      5-min Rain = 0
KVA1 200108Z 22005KT 09/M07 A3029 RMK A01 T00891074  RH  031%=      5-min Rain = 0
KVA1 200109Z 22004KT 09/M07 A3029 RMK A01 T00881073  RH  031%=      5-min Rain = 0
KVA1 200110Z 22004KT 09/M07 A3029 RMK A01 T00871074  RH  031%=      5-min Rain = 0
KVA1 200111Z 21004KT 09/M07 A3029 RMK A01 T00861073  RH  032%=      5-min Rain = 0
KVA1 200112Z 22004KT 09/M07 A3029 RMK A01 T00851074  RH  032%=      5-min Rain = 0
KVA1 200113Z 21005KT 09/M07 A3029 RMK A01 T00851074  RH  032%=      5-min Rain = 0
KVA1 200114Z 21005KT 08/M07 A3029 RMK A01 T00841074  RH  032%=      5-min Rain = 0
KVA1 200115Z 21005KT 08/M07 A3029 RMK A01 T00841073  RH  032%=      5-min Rain = 0
KVA1 200116Z 21005KT 08/M07 A3029 RMK A01 T00841072  RH  032%=      5-min Rain = 0
KVA1 200117Z 21005KT 08/M07 A3029 RMK A01 T00831074  RH  032%=      5-min Rain = 0
KVA1 200118Z 21006KT 08/M07 A3029 RMK A01 T00831074  RH  032%=      5-min Rain = 0
KVA1 200119Z 21006KT 08/M07 A3029 RMK A01 T00821074  RH  032%=      5-min Rain = 0
KVA1 200120Z 21006KT 08/M07 A3029 RMK A01 T00831074  RH  032%=      5-min Rain = 0
KVA1 200121Z 21006KT 08/M07 A3029 RMK A01 T00831074  RH  032%=      5-min Rain = 0
KVA1 200122Z 21006KT 08/M07 A3029 RMK A01 T00831074  RH  032%=      5-min Rain = 0
KVA1 200123Z 21006KT 08/M07 A3029 RMK A01 T00821074  RH  032%=      5-min Rain = 0
KVA1 200124Z 22006KT 08/M07 A303 RMK A01 T00821074  RH  032%=      5-min Rain = 0
KVA1 200125Z 22006KT 08/M07 A303 RMK A01 T00831073  RH  032%=      5-min Rain = 0
KVA1 200126Z 22006KT 08/M07 A303 RMK A01 T00831073  RH  032%=      5-min Rain = 0
KVA1 200127Z 22006KT 08/M07 A303 RMK A01 T00841073  RH  032%=      5-min Rain = 0
KVA1 200128Z 22006KT 08/M07 A3029 RMK A01 T00841073  RH  032%=      5-min Rain = 0
KVA1 200129Z 22006KT 08/M07 A303 RMK A01 T00841073  RH  032%=      5-min Rain = 0
KVA1 200130Z 22006KT 09/M07 A303 RMK A01 T00851073  RH  032%=      5-min Rain = 0
KVA1 200131Z 23006KT 09/M07 A303 RMK A01 T00851072  RH  032%=      5-min Rain = 0
KVA1 200132Z 23006KT 09/M07 A303 RMK A01 T00851072  RH  032%=      5-min Rain = 0
KVA1 200133Z 23005KT 09/M07 A303 RMK A01 T00851072  RH  032%=      5-min Rain = 0
KVA1 200134Z 23005KT 08/M07 A303 RMK A01 T00841072  RH  032%=      5-min Rain = 0
KVA1 200135Z 24005KT 08/M07 A303 RMK A01 T00841072  RH  032%=      5-min Rain = 0
KVA1 200136Z 24005KT 08/M07 A303 RMK A01 T00841072  RH  032%=      5-min Rain = 0
KVA1 200137Z 24005KT 08/M07 A303 RMK A01 T00831072  RH  033%=      5-min Rain = 0
KVA1 200138Z 25005KT 08/M07 A303 RMK A01 T00831072  RH  033%=      5-min Rain = 0
KVA1 200139Z 25005KT 08/M07 A303 RMK A01 T00821072  RH  033%=      5-min Rain = 0
KVA1 200140Z 25005KT 08/M07 A303 RMK A01 T00821072  RH  033%=      5-min Rain = 0
KVA1 200141Z 26006KT 08/M07 A303 RMK A01 T00811072  RH  033%=      5-min Rain = 0
KVA1 200142Z 26006KT 08/M07 A303 RMK A01 T00811072  RH  033%=      5-min Rain = 0
KVA1 200143Z 26006KT 08/M07 A303 RMK A01 T00801072  RH  033%=      5-min Rain = 0
KVA1 200144Z 26006KT 08/M07 A303 RMK A01 T00791072  RH  033%=      5-min Rain = 0
KVA1 200145Z 26006KT 08/M07 A303 RMK A01 T00791072  RH  034%=      5-min Rain = 0
KVA1 200146Z 26007KT 08/M07 A303 RMK A01 T00781072  RH  034%=      5-min Rain = 0
KVA1 200147Z 25007KT 08/M07 A303 RMK A01 T00771072  RH  034%=      5-min Rain = 0
KVA1 200148Z 25007KT 08/M07 A303 RMK A01 T00771072  RH  034%=      5-min Rain = 0
KVA1 200149Z 24007KT 08/M07 A303 RMK A01 T00771071  RH  034%=      5-min Rain = 0
KVA1 200150Z 24007KT 08/M07 A303 RMK A01 T00771071  RH  034%=      5-min Rain = 0
KVA1 200151Z 24006KT 08/M07 A303 RMK A01 T00771071  RH  034%=      5-min Rain = 0
KVA1 200152Z 24006KT 08/M07 A303 RMK A01 T00781071  RH  034%=      5-min Rain = 0
KVA1 200153Z 24007KT 08/M07 A303 RMK A01 T00781071  RH  034%=      5-min Rain = 0
KVA1 200154Z 25007KT 08/M07 A303 RMK A01 T00781072  RH  034%=      5-min Rain = 0
KVA1 200155Z 25007KT 08/M07 A303 RMK A01 T00781072  RH  034%=      5-min Rain = 0
KVA1 200156Z 25007KT 08/M07 A303 RMK A01 T00791072  RH  033%=      5-min Rain = 0
KVA1 200157Z 25007KT 08/M07 A303 RMK A01 T00791073  RH  033%=      5-min Rain = 0
KVA1 200158Z 26006KT 08/M07 A303 RMK A01 T00801073  RH  033%=      5-min Rain = 0
KVA1 200159Z 26006KT 08/M07 A303 RMK A01 T00811074  RH  033%=      5-min Rain = 0
KVA1 200200Z 26006KT 08/M07 A303 RMK A01 T00801074  RH  033%=      5-min Rain = 0
KVA1 200201Z 26006KT 08/M07 A303 RMK A01 T00791074  RH  033%=      5-min Rain = 0
KVA1 200202Z 26006KT 08/M07 A303 RMK A01 T00771074  RH  033%=      5-min Rain = 0
KVA1 200203Z 26007KT 08/M08 A303 RMK A01 T00761075  RH  033%=      5-min Rain = 0
KVA1 200204Z 26007KT 08/M08 A303 RMK A01 T00751075  RH  034%=      5-min Rain = 0
KVA1 200205Z 25007KT 07/M08 A303 RMK A01 T00741075  RH  034%=      5-min Rain = 0
KVA1 200206Z 25007KT 07/M08 A303 RMK A01 T00741075  RH  034%=      5-min Rain = 0
KVA1 200207Z 25007KT 07/M07 A303 RMK A01 T00741074  RH  034%=      5-min Rain = 0
KVA1 200208Z 25007KT 07/M08 A303 RMK A01 T00741075  RH  034%=      5-min Rain = 0
KVA1 200209Z 25007KT 07/M08 A303 RMK A01 T00741075  RH  034%=      5-min Rain = 0
KVA1 200210Z 25007KT 07/M08 A303 RMK A01 T00741075  RH  034%=      5-min Rain = 0
KVA1 200211Z 25007KT 08/M08 A303 RMK A01 T00751075  RH  034%=      5-min Rain = 0
KVA1 200212Z 25007KT 08/M08 A303 RMK A01 T00751075  RH  034%=      5-min Rain = 0
KVA1 200213Z 25007KT 08/M08 A303 RMK A01 T00751075  RH  034%=      5-min Rain = 0
KVA1 200214Z 25007KT 08/M08 A303 RMK A01 T00761075  RH  034%=      5-min Rain = 0
KVA1 200215Z 26007KT 08/M08 A303 RMK A01 T00751075  RH  034%=      5-min Rain = 0
KVA1 200216Z 25008KT 08/M08 A303 RMK A01 T00751075  RH  034%=      5-min Rain = 0
KVA1 200217Z 26008KT 08/M08 A303 RMK A01 T00751075  RH  034%=      5-min Rain = 0
KVA1 200218Z 25008KT 08/M08 A303 RMK A01 T00751076  RH  034%=      5-min Rain = 0
KVA1 200219Z 26007KT 08/M08 A303 RMK A01 T00751075  RH  033%=      5-min Rain = 0
KVA1 200220Z 26007KT 08/M08 A303 RMK A01 T00761075  RH  033%=      5-min Rain = 0
KVA1 200221Z 26007KT 08/M08 A303 RMK A01 T00761075  RH  033%=      5-min Rain = 0
KVA1 200222Z 27007KT 08/M08 A3031 RMK A01 T00761075  RH  033%=      5-min Rain = 0
KVA1 200223Z 26007KT 08/M08 A3031 RMK A01 T00761075  RH  033%=      5-min Rain = 0
KVA1 200224Z 26007KT 08/M08 A303 RMK A01 T00761075  RH  034%=      5-min Rain = 0
KVA1 200225Z 25006KT 08/M08 A303 RMK A01 T00761075  RH  034%=      5-min Rain = 0
KVA1 200226Z 25007KT 08/M07 A303 RMK A01 T00761074  RH  034%=      5-min Rain = 0
KVA1 200227Z 25007KT 08/M07 A3029 RMK A01 T00751074  RH  034%=      5-min Rain = 0
KVA1 200228Z 25007KT 08/M07 A3029 RMK A01 T00761074  RH  034%=      5-min Rain = 0
KVA1 200229Z 25006KT 08/M07 A3029 RMK A01 T00751074  RH  034%=      5-min Rain = 0
KVA1 200230Z 24006KT 08/M07 A3029 RMK A01 T00761073  RH  034%=      5-min Rain = 0
KVA1 200231Z 23005KT 08/M07 A3029 RMK A01 T00761074  RH  034%=      5-min Rain = 0
KVA1 200232Z 19005KT 08/M07 A3029 RMK A01 T00771073  RH  034%=      5-min Rain = 0
KVA1 200233Z 20006KT 08/M07 A3029 RMK A01 T00751073  RH  034%=      5-min Rain = 0
KVA1 200234Z 20005KT 07/M07 A3029 RMK A01 T00711074  RH  035%=      5-min Rain = 0
KVA1 200235Z 20005KT 07/M07 A3029 RMK A01 T00681074  RH  036%=      5-min Rain = 0
KVA1 200236Z 20005KT 07/M07 A3029 RMK A01 T00661073  RH  036%=      5-min Rain = 0
KVA1 200237Z 20005KT 06/M07 A3029 RMK A01 T00641074  RH  037%=      5-min Rain = 0
KVA1 200238Z 20005KT 06/M07 A3029 RMK A01 T00641073  RH  037%=      5-min Rain = 0
KVA1 200239Z 21005KT 06/M07 A3029 RMK A01 T00631073  RH  037%=      5-min Rain = 0
KVA1 200240Z 20006KT 06/M07 A303 RMK A01 T00631072  RH  037%=      5-min Rain = 0
KVA1 200241Z 19006KT 06/M07 A303 RMK A01 T00641072  RH  037%=      5-min Rain = 0
KVA1 200242Z 18006KT 06/M07 A303 RMK A01 T00641072  RH  037%=      5-min Rain = 0
KVA1 200243Z 19006KT 06/M07 A3031 RMK A01 T00641071  RH  037%=      5-min Rain = 0
KVA1 200244Z 19006KT 07/M07 A3031 RMK A01 T00651071  RH  037%=      5-min Rain = 0
KVA1 200245Z 18006KT 07/M07 A3031 RMK A01 T00651070  RH  037%=      5-min Rain = 0
KVA1 200246Z 19005KT 06/M07 A3032 RMK A01 T00641071  RH  037%=      5-min Rain = 0
KVA1 200247Z 20006KT 07/M07 A3032 RMK A01 T00661072  RH  037%=      5-min Rain = 0
KVA1 200248Z 21006KT 07/M07 A3032 RMK A01 T00721072  RH  035%=      5-min Rain = 0
KVA1 200249Z 23006KT 08/M07 A3032 RMK A01 T00781072  RH  034%=      5-min Rain = 0
KVA1 200250Z 26004KT 08/M07 A3033 RMK A01 T00841073  RH  032%=      5-min Rain = 0
KVA1 200251Z 27004KT 08/M08 A3033 RMK A01 T00791075  RH  033%=      5-min Rain = 0
KVA1 200252Z 25005KT 07/M08 A3033 RMK A01 T00731076  RH  034%=      5-min Rain = 0
KVA1 200253Z 25005KT 07/M08 A3033 RMK A01 T00721076  RH  034%=      5-min Rain = 0
KVA1 200254Z 24004KT 07/M08 A3033 RMK A01 T00721075  RH  034%=      5-min Rain = 0
KVA1 200255Z 24005KT 07/M07 A3033 RMK A01 T00711074  RH  035%=      5-min Rain = 0
KVA1 200256Z 24005KT 07/M08 A3033 RMK A01 T00711075  RH  034%=      5-min Rain = 0
KVA1 200257Z 23005KT 07/M08 A3032 RMK A01 T00721076  RH  034%=      5-min Rain = 0
KVA1 200258Z 23004KT 07/M08 A3032 RMK A01 T00731075  RH  034%=      5-min Rain = 0
KVA1 200259Z 23004KT 07/M08 A3032 RMK A01 T00721075  RH  034%=      5-min Rain = 0
KVA1 200300Z 23005KT 07/M08 A3032 RMK A01 T00711075  RH  035%=      5-min Rain = 0
KVA1 200301Z 23005KT 07/M08 A3032 RMK A01 T00691075  RH  035%=      5-min Rain = 0
KVA1 200302Z 22005KT 07/M08 A3032 RMK A01 T00681075  RH  035%=      5-min Rain = 0
KVA1 200303Z 21005KT 07/M08 A3032 RMK A01 T00661075  RH  036%=      5-min Rain = 0
KVA1 200304Z 21005KT 07/M08 A3032 RMK A01 T00651075  RH  036%=      5-min Rain = 0
KVA1 200305Z 20006KT 06/M08 A3032 RMK A01 T00631075  RH  036%=      5-min Rain = 0
KVA1 200306Z 21007KT 06/M07 A3032 RMK A01 T00621074  RH  037%=      5-min Rain = 0
KVA1 200307Z 20008KT 06/M07 A3032 RMK A01 T00611073  RH  037%=      5-min Rain = 0
KVA1 200308Z 21008KT 06/M07 A3032 RMK A01 T00611073  RH  038%=      5-min Rain = 0
KVA1 200309Z 21007KT 06/M07 A3032 RMK A01 T00611073  RH  038%=      5-min Rain = 0
KVA1 200310Z 22006KT 06/M07 A3032 RMK A01 T00601074  RH  038%=      5-min Rain = 0
KVA1 200311Z 22006KT 06/M07 A3032 RMK A01 T00601074  RH  038%=      5-min Rain = 0
KVA1 200312Z 22007KT 06/M08 A3032 RMK A01 T00601075  RH  038%=      5-min Rain = 0
KVA1 200313Z 22007KT 06/M08 A3032 RMK A01 T00601075  RH  037%=      5-min Rain = 0
KVA1 200314Z 23006KT 06/M08 A3032 RMK A01 T00601075  RH  037%=      5-min Rain = 0
KVA1 200315Z 23005KT 06/M08 A3032 RMK A01 T00611076  RH  037%=      5-min Rain = 0
KVA1 200316Z 24005KT 06/M08 A3032 RMK A01 T00611076  RH  037%=      5-min Rain = 0
KVA1 200317Z 25006KT 06/M08 A3032 RMK A01 T00601077  RH  037%=      5-min Rain = 0
KVA1 200318Z 24006KT 06/M08 A3032 RMK A01 T00601077  RH  037%=      5-min Rain = 0
KVA1 200319Z 25006KT 06/M08 A3032 RMK A01 T00601077  RH  036%=      5-min Rain = 0
KVA1 200320Z 25005KT 06/M08 A3032 RMK A01 T00611078  RH  036%=      5-min Rain = 0
KVA1 200321Z 25005KT 06/M08 A3032 RMK A01 T00611078  RH  036%=      5-min Rain = 0
KVA1 200322Z 24006KT 06/M08 A3032 RMK A01 T00611079  RH  036%=      5-min Rain = 0
KVA1 200323Z 25007KT 06/M08 A3032 RMK A01 T00621079  RH  036%=      5-min Rain = 0
KVA1 200324Z 24006KT 06/M08 A3032 RMK A01 T00631081  RH  035%=      5-min Rain = 0
KVA1 200325Z 24006KT 07/M08 A3032 RMK A01 T00651082  RH  034%=      5-min Rain = 0
KVA1 200326Z 24005KT 07/M08 A3033 RMK A01 T00671083  RH  033%=      5-min Rain = 0
KVA1 200327Z 24005KT 07/M08 A3033 RMK A01 T00691083  RH  033%=      5-min Rain = 0
KVA1 200328Z 23005KT 07/M08 A3032 RMK A01 T00691084  RH  033%=      5-min Rain = 0
KVA1 200329Z 22005KT 07/M08 A3032 RMK A01 T00691084  RH  033%=      5-min Rain = 0
KVA1 200330Z 22005KT 07/M08 A3032 RMK A01 T00691083  RH  033%=      5-min Rain = 0
KVA1 200331Z 22006KT 07/M08 A3032 RMK A01 T00671083  RH  033%=      5-min Rain = 0
KVA1 200332Z 22007KT 07/M08 A3032 RMK A01 T00661083  RH  034%=      5-min Rain = 0
KVA1 200333Z 22006KT 07/M08 A3032 RMK A01 T00661081  RH  034%=      5-min Rain = 0
KVA1 200334Z 22005KT 07/M08 A3032 RMK A01 T00661081  RH  034%=      5-min Rain = 0
KVA1 200335Z 21004KT 07/M08 A3032 RMK A01 T00651081  RH  034%=      5-min Rain = 0
KVA1 200336Z 22004KT 06/M08 A3032 RMK A01 T00641080  RH  035%=      5-min Rain = 0
KVA1 200337Z 22004KT 06/M08 A3032 RMK A01 T00631080  RH  035%=      5-min Rain = 0
KVA1 200338Z 23004KT 06/M08 A3032 RMK A01 T00611079  RH  036%=      5-min Rain = 0
KVA1 200339Z 23005KT 06/M08 A3032 RMK A01 T00591079  RH  036%=      5-min Rain = 0
KVA1 200340Z 22005KT 06/M08 A3032 RMK A01 T00581079  RH  037%=      5-min Rain = 0
KVA1 200341Z 22005KT 06/M08 A3032 RMK A01 T00581078  RH  037%=      5-min Rain = 0
KVA1 200342Z 22005KT 06/M08 A3032 RMK A01 T00571078  RH  037%=      5-min Rain = 0
KVA1 200343Z 21005KT 06/M08 A3032 RMK A01 T00561078  RH  037%=      5-min Rain = 0
KVA1 200344Z 21006KT 06/M08 A3032 RMK A01 T00551077  RH  038%=      5-min Rain = 0
KVA1 200345Z 21007KT 05/M08 A3032 RMK A01 T00541077  RH  038%=      5-min Rain = 0
KVA1 200346Z 21007KT 05/M08 A3032 RMK A01 T00531077  RH  038%=      5-min Rain = 0
KVA1 200347Z 20007KT 05/M08 A3032 RMK A01 T00531077  RH  038%=      5-min Rain = 0
KVA1 200348Z 20007KT 05/M08 A3032 RMK A01 T00531077  RH  038%=      5-min Rain = 0
KVA1 200349Z 21008KT 05/M08 A3032 RMK A01 T00531077  RH  039%=      5-min Rain = 0
KVA1 200350Z 22008KT 05/M08 A3032 RMK A01 T00531079  RH  038%=      5-min Rain = 0
KVA1 200351Z 23008KT 06/M08 A3032 RMK A01 T00571080  RH  037%=      5-min Rain = 0
KVA1 200352Z 22006KT 06/M08 A3032 RMK A01 T00621081  RH  035%=      5-min Rain = 0
KVA1 200353Z 21005KT 06/M08 A3032 RMK A01 T00631080  RH  035%=      5-min Rain = 0
KVA1 200354Z 20006KT 06/M08 A3032 RMK A01 T00601081  RH  036%=      5-min Rain = 0
KVA1 200355Z 21008KT 06/M08 A3032 RMK A01 T00561082  RH  036%=      5-min Rain = 0
KVA1 200356Z 21009KT 06/M08 A3032 RMK A01 T00551081  RH  037%=      5-min Rain = 0
KVA1 200357Z 22008KT 06/M08 A3032 RMK A01 T00551082  RH  037%=      5-min Rain = 0
KVA1 200358Z 23005KT 06/M08 A3032 RMK A01 T00561082  RH  036%=      5-min Rain = 0
KVA1 200359Z 22004KT 06/M08 A3032 RMK A01 T00561082  RH  036%=      5-min Rain = 0
KVA1 200400Z 21005KT 06/M08 A3032 RMK A01 T00551083  RH  036%=      5-min Rain = 0
KVA1 200401Z 22006KT 05/M08 A3032 RMK A01 T00541083  RH  037%=      5-min Rain = 0
KVA1 200402Z 21005KT 05/M08 A3032 RMK A01 T00531082  RH  037%=      5-min Rain = 0
KVA1 200403Z 22005KT 05/M08 A3032 RMK A01 T00511082  RH  037%=      5-min Rain = 0
KVA1 200404Z 22005KT 05/M08 A3032 RMK A01 T00511082  RH  038%=      5-min Rain = 0
KVA1 200405Z 22005KT 05/M08 A3032 RMK A01 T00501082  RH  038%=      5-min Rain = 0
KVA1 200406Z 22006KT 05/M08 A3032 RMK A01 T00501083  RH  038%=      5-min Rain = 0
KVA1 200407Z 22005KT 05/M08 A3032 RMK A01 T00501082  RH  038%=      5-min Rain = 0
KVA1 200408Z 21005KT 05/M08 A3032 RMK A01 T00511083  RH  037%=      5-min Rain = 0
KVA1 200409Z 20005KT 05/M08 A3032 RMK A01 T00511082  RH  037%=      5-min Rain = 0
KVA1 200410Z 19006KT 05/M08 A3032 RMK A01 T00491082  RH  038%=      5-min Rain = 0
KVA1 200411Z 20006KT 05/M08 A3032 RMK A01 T00481080  RH  039%=      5-min Rain = 0
KVA1 200412Z 20007KT 05/M08 A3032 RMK A01 T00461079  RH  040%=      5-min Rain = 0
KVA1 200413Z 20006KT 04/M08 A3032 RMK A01 T00441077  RH  041%=      5-min Rain = 0
KVA1 200414Z 21006KT 04/M08 A3032 RMK A01 T00441076  RH  041%=      5-min Rain = 0
KVA1 200415Z 21008KT 05/M08 A3032 RMK A01 T00451076  RH  041%=      5-min Rain = 0
KVA1 200416Z 22008KT 05/M08 A3032 RMK A01 T00481077  RH  040%=      5-min Rain = 0
KVA1 200417Z 22008KT 05/M08 A3032 RMK A01 T00501078  RH  039%=      5-min Rain = 0
KVA1 200418Z 21008KT 05/M08 A3032 RMK A01 T00531079  RH  038%=      5-min Rain = 0
KVA1 200419Z 21008KT 05/M08 A3032 RMK A01 T00541080  RH  037%=      5-min Rain = 0
KVA1 200420Z 21007KT 06/M08 A3032 RMK A01 T00551081  RH  037%=      5-min Rain = 0
KVA1 200421Z 21007KT 05/M08 A3032 RMK A01 T00541082  RH  037%=      5-min Rain = 0
KVA1 200422Z 21007KT 05/M08 A3032 RMK A01 T00541082  RH  037%=      5-min Rain = 0
KVA1 200423Z 21008KT 05/M08 A3032 RMK A01 T00541082  RH  037%=      5-min Rain = 0
KVA1 200424Z 22008KT 05/M08 A3032 RMK A01 T00541083  RH  036%=      5-min Rain = 0
KVA1 200425Z 22008KT 06/M08 A3032 RMK A01 T00561084  RH  036%=      5-min Rain = 0
KVA1 200426Z 21005KT 06/M09 A3032 RMK A01 T00591085  RH  035%=      5-min Rain = 0
KVA1 200427Z 20006KT 06/M08 A3032 RMK A01 T00601083  RH  035%=      5-min Rain = 0
KVA1 200428Z 22006KT 06/M08 A3032 RMK A01 T00581081  RH  036%=      5-min Rain = 0
KVA1 200429Z 22007KT 06/M08 A3032 RMK A01 T00561080  RH  037%=      5-min Rain = 0
KVA1 200430Z 22007KT 06/M08 A3032 RMK A01 T00561081  RH  037%=      5-min Rain = 0
KVA1 200431Z 23007KT 06/M08 A3032 RMK A01 T00561082  RH  036%=      5-min Rain = 0
KVA1 200432Z 23006KT 06/M08 A3032 RMK A01 T00581083  RH  036%=      5-min Rain = 0
KVA1 200433Z 23006KT 06/M08 A3032 RMK A01 T00591083  RH  035%=      5-min Rain = 0
KVA1 200434Z 23005KT 06/M08 A3032 RMK A01 T00591083  RH  035%=      5-min Rain = 0
KVA1 200435Z 23006KT 06/M08 A3032 RMK A01 T00581082  RH  036%=      5-min Rain = 0
KVA1 200436Z 23007KT 06/M08 A3032 RMK A01 T00571082  RH  036%=      5-min Rain = 0
KVA1 200437Z 23007KT 06/M08 A3032 RMK A01 T00561082  RH  036%=      5-min Rain = 0
KVA1 200438Z 23007KT 06/M08 A3032 RMK A01 T00551082  RH  037%=      5-min Rain = 0
KVA1 200439Z 22007KT 05/M08 A3032 RMK A01 T00541081  RH  037%=      5-min Rain = 0
KVA1 200440Z 22006KT 05/M08 A3032 RMK A01 T00521081  RH  038%=      5-min Rain = 0
KVA1 200441Z 22008KT 05/M08 A3032 RMK A01 T00491080  RH  039%=      5-min Rain = 0
KVA1 200442Z 22007KT 05/M08 A3032 RMK A01 T00471080  RH  039%=      5-min Rain = 0
KVA1 200443Z 21006KT 05/M08 A3032 RMK A01 T00471080  RH  039%=      5-min Rain = 0
KVA1 200444Z 22007KT 05/M08 A3032 RMK A01 T00461080  RH  040%=      5-min Rain = 0
KVA1 200445Z 23008KT 04/M08 A3032 RMK A01 T00441080  RH  040%=      5-min Rain = 0
KVA1 200446Z 23008KT 04/M08 A3032 RMK A01 T00441081  RH  040%=      5-min Rain = 0
KVA1 200447Z 23008KT 05/M08 A3032 RMK A01 T00451081  RH  040%=      5-min Rain = 0
KVA1 200448Z 23007KT 05/M08 A3032 RMK A01 T00461081  RH  039%=      5-min Rain = 0
KVA1 200449Z 23007KT 05/M08 A3032 RMK A01 T00471081  RH  039%=      5-min Rain = 0
KVA1 200450Z 23007KT 05/M08 A3032 RMK A01 T00471082  RH  039%=      5-min Rain = 0
KVA1 200451Z 23007KT 05/M08 A3032 RMK A01 T00481082  RH  038%=      5-min Rain = 0
KVA1 200452Z 23007KT 05/M08 A3032 RMK A01 T00491082  RH  038%=      5-min Rain = 0
KVA1 200453Z 22006KT 05/M08 A3032 RMK A01 T00491082  RH  038%=      5-min Rain = 0
KVA1 200454Z 23007KT 05/M08 A3032 RMK A01 T00481082  RH  038%=      5-min Rain = 0
KVA1 200455Z 22007KT 05/M08 A3032 RMK A01 T00471082  RH  038%=      5-min Rain = 0
KVA1 200456Z 23007KT 05/M08 A3032 RMK A01 T00461083  RH  039%=      5-min Rain = 0
KVA1 200457Z 23007KT 05/M08 A3032 RMK A01 T00461083  RH  039%=      5-min Rain = 0
KVA1 200458Z 23006KT 05/M08 A3032 RMK A01 T00471083  RH  038%=      5-min Rain = 0
KVA1 200459Z 23006KT 05/M08 A3032 RMK A01 T00471083  RH  038%=      5-min Rain = 0
KVA1 200500Z 24006KT 05/M08 A3032 RMK A01 T00471083  RH  038%=      5-min Rain = 0
KVA1 200501Z 24007KT 05/M08 A3032 RMK A01 T00471083  RH  038%=      5-min Rain = 0
KVA1 200502Z 24007KT 05/M08 A3032 RMK A01 T00471083  RH  038%=      5-min Rain = 0
KVA1 200503Z 24006KT 05/M08 A3032 RMK A01 T00471083  RH  038%=      5-min Rain = 0
KVA1 200504Z 24006KT 05/M08 A3032 RMK A01 T00471083  RH  038%=      5-min Rain = 0
KVA1 200505Z 23006KT 05/M08 A3032 RMK A01 T00471083  RH  038%=      5-min Rain = 0
KVA1 200506Z 23007KT 05/M08 A3032 RMK A01 T00471083  RH  038%=      5-min Rain = 0
KVA1 200507Z 24007KT 05/M08 A3032 RMK A01 T00471083  RH  038%=      5-min Rain = 0
KVA1 200508Z 24007KT 05/M08 A3032 RMK A01 T00481083  RH  038%=      5-min Rain = 0
KVA1 200509Z 23007KT 05/M08 A3032 RMK A01 T00481083  RH  038%=      5-min Rain = 0
KVA1 200510Z 23007KT 05/M08 A3032 RMK A01 T00481084  RH  038%=      5-min Rain = 0
KVA1 200511Z 23007KT 05/M08 A3032 RMK A01 T00491083  RH  038%=      5-min Rain = 0
KVA1 200512Z 23007KT 05/M08 A3033 RMK A01 T00491083  RH  038%=      5-min Rain = 0
KVA1 200513Z 23007KT 05/M08 A3033 RMK A01 T00491083  RH  038%=      5-min Rain = 0
KVA1 200514Z 22007KT 05/M08 A3033 RMK A01 T00491083  RH  038%=      5-min Rain = 0
KVA1 200515Z 22007KT 05/M08 A3033 RMK A01 T00491084  RH  038%=      5-min Rain = 0
KVA1 200516Z 22006KT 05/M08 A3033 RMK A01 T00491084  RH  038%=      5-min Rain = 0
KVA1 200517Z 21006KT 05/M08 A3033 RMK A01 T00491084  RH  038%=      5-min Rain = 0
KVA1 200518Z 21006KT 05/M08 A3033 RMK A01 T00471083  RH  038%=      5-min Rain = 0
KVA1 200519Z 21007KT 04/M08 A3033 RMK A01 T00431084  RH  039%=      5-min Rain = 0
KVA1 200520Z 21007KT 04/M08 A3032 RMK A01 T00421083  RH  040%=      5-min Rain = 0
KVA1 200521Z 21008KT 04/M08 A3032 RMK A01 T00411083  RH  040%=      5-min Rain = 0
KVA1 200522Z 20008KT 04/M08 A3032 RMK A01 T00421083  RH  040%=      5-min Rain = 0
KVA1 200523Z 19007KT 04/M08 A3032 RMK A01 T00441084  RH  039%=      5-min Rain = 0
KVA1 200524Z 18006KT 05/M08 A3032 RMK A01 T00461083  RH  039%=      5-min Rain = 0
KVA1 200525Z 18008KT 04/M08 A3032 RMK A01 T00421083  RH  040%=      5-min Rain = 0
KVA1 200526Z 18009KT 04/M08 A3032 RMK A01 T00381082  RH  041%=      5-min Rain = 0
KVA1 200527Z 19009KT 04/M08 A3032 RMK A01 T00361081  RH  042%=      5-min Rain = 0
KVA1 200528Z 20008KT 04/M08 A3032 RMK A01 T00361081  RH  042%=      5-min Rain = 0
KVA1 200529Z 21007KT 04/M08 A3032 RMK A01 T00381081  RH  041%=      5-min Rain = 0
KVA1 200530Z 21006KT 04/M08 A3032 RMK A01 T00401081  RH  041%=      5-min Rain = 0
KVA1 200531Z 21006KT 04/M08 A3032 RMK A01 T00411081  RH  040%=      5-min Rain = 0
KVA1 200532Z 21006KT 04/M08 A3032 RMK A01 T00421082  RH  040%=      5-min Rain = 0
KVA1 200533Z 21006KT 04/M08 A3032 RMK A01 T00411082  RH  040%=      5-min Rain = 0
KVA1 200534Z 20007KT 04/M08 A3033 RMK A01 T00411082  RH  040%=      5-min Rain = 0
KVA1 200535Z 19007KT 04/M08 A3033 RMK A01 T00401082  RH  040%=      5-min Rain = 0
KVA1 200536Z 19008KT 04/M08 A3033 RMK A01 T00401082  RH  041%=      5-min Rain = 0
KVA1 200537Z 19008KT 04/M08 A3033 RMK A01 T00391082  RH  041%=      5-min Rain = 0
KVA1 200538Z 20009KT 04/M08 A3033 RMK A01 T00391082  RH  041%=      5-min Rain = 0
KVA1 200539Z 20009KT 04/M08 A3033 RMK A01 T00381082  RH  041%=      5-min Rain = 0
KVA1 200540Z 20008KT 04/M08 A3033 RMK A01 T00391082  RH  041%=      5-min Rain = 0
KVA1 200541Z 21007KT 04/M08 A3033 RMK A01 T00391082  RH  041%=      5-min Rain = 0
KVA1 200542Z 21007KT 04/M08 A3033 RMK A01 T00401081  RH  041%=      5-min Rain = 0
KVA1 200543Z 21007KT 04/M08 A3033 RMK A01 T00401081  RH  041%=      5-min Rain = 0
KVA1 200544Z 21007KT 04/M08 A3033 RMK A01 T00401081  RH  041%=      5-min Rain = 0
KVA1 200545Z 22007KT 04/M08 A3033 RMK A01 T00411081  RH  041%=      5-min Rain = 0
KVA1 200546Z 22007KT 04/M08 A3033 RMK A01 T00411081  RH  041%=      5-min Rain = 0
KVA1 200547Z 22008KT 04/M08 A3033 RMK A01 T00411082  RH  040%=      5-min Rain = 0
KVA1 200548Z 22008KT 04/M08 A3033 RMK A01 T00411082  RH  040%=      5-min Rain = 0
KVA1 200549Z 22009KT 04/M08 A3033 RMK A01 T00411082  RH  040%=      5-min Rain = 0
KVA1 200550Z 22008KT 04/M08 A3033 RMK A01 T00411081  RH  041%=      5-min Rain = 0
KVA1 200551Z 21007KT 04/M08 A3033 RMK A01 T00411081  RH  041%=      5-min Rain = 0
KVA1 200552Z 21008KT 04/M08 A3033 RMK A01 T00401081  RH  041%=      5-min Rain = 0
KVA1 200553Z 21007KT 04/M08 A3033 RMK A01 T00401081  RH  041%=      5-min Rain = 0
KVA1 200554Z 21007KT 04/M08 A3033 RMK A01 T00401081  RH  041%=      5-min Rain = 0
KVA1 200555Z 21007KT 04/M08 A3033 RMK A01 T00401080  RH  041%=      5-min Rain = 0
KVA1 200556Z 22007KT 04/M08 A3033 RMK A01 T00401080  RH  041%=      5-min Rain = 0
KVA1 200557Z 22007KT 04/M08 A3033 RMK A01 T00401080  RH  041%=      5-min Rain = 0
KVA1 200558Z 22007KT 04/M08 A3033 RMK A01 T00401080  RH  041%=      5-min Rain = 0
KVA1 200559Z 22006KT 04/M08 A3033 RMK A01 T00391080  RH  041%=      5-min Rain = 0

Page generated in 0.0382 seconds.